Time,TemperatureF,DewpointF,PressureIn,WindDirection,WindDirectionDegrees,WindSpeedMPH,WindSpeedGustMPH,Humidity,HourlyPrecipIn,Conditions,Clouds,dailyrainin,SolarRadiationWatts/m^2,SoftwareType,DateUTC
2013-08-23 00:00:00,68.1,66.6,29.99,NE,52,0.0,0.0,95,0.00,,,0.00,0,Wunderground v.1.15,2013-08-23 05:00:00,
2013-08-23 00:04:00,68.1,66.6,29.99,NE,52,0.0,0.0,95,0.00,,,0.00,0,Wunderground v.1.15,2013-08-23 05:04:00,
2013-08-23 00:06:00,68.2,66.7,29.99,NE,52,0.0,0.0,95,0.00,,,0.00,0,Wunderground v.1.15,2013-08-23 05:06:00,
2013-08-23 00:08:00,68.1,66.6,29.99,NE,52,0.0,0.0,95,0.00,,,0.00,0,Wunderground v.1.15,2013-08-23 05:08:00,
2013-08-23 00:09:00,68.1,66.6,29.99,NE,52,0.0,0.0,95,0.00,,,0.00,0,Wunderground v.1.15,2013-08-23 05:09:00,
2013-08-23 00:12:00,68.1,66.6,29.99,NE,52,0.0,0.0,95,0.00,,,0.00,0,Wunderground v.1.15,2013-08-23 05:12:00,
2013-08-23 00:14:00,68.2,66.7,29.99,NE,52,0.0,0.0,95,0.00,,,0.00,0,Wunderground v.1.15,2013-08-23 05:14:00,
2013-08-23 00:17:00,68.3,66.8,29.99,NE,52,0.0,0.0,95,0.00,,,0.00,0,Wunderground v.1.15,2013-08-23 05:17:00,
2013-08-23 00:18:00,68.3,66.8,29.99,NE,52,0.0,0.0,95,0.00,,,0.00,0,Wunderground v.1.15,2013-08-23 05:18:00,
2013-08-23 00:19:00,68.2,66.4,29.99,NE,52,0.0,0.0,94,0.00,,,0.00,0,Wunderground v.1.15,2013-08-23 05:19:00,
2013-08-23 00:23:00,68.1,66.6,29.99,NE,52,0.0,0.0,95,0.00,,,0.00,0,Wunderground v.1.15,2013-08-23 05:23:00,
2013-08-23 00:24:00,68.1,66.6,29.99,NE,52,0.0,0.0,95,0.00,,,0.00,0,Wunderground v.1.15,2013-08-23 05:24:00,
2013-08-23 00:25:00,68.2,66.7,29.99,NE,52,0.0,0.0,95,0.00,,,0.00,0,Wunderground v.1.15,2013-08-23 05:25:00,
2013-08-23 00:27:00,68.3,66.8,29.99,NE,52,0.0,0.0,95,0.00,,,0.00,0,Wunderground v.1.15,2013-08-23 05:27:00,
2013-08-23 00:29:00,68.3,66.8,29.99,NE,52,0.0,0.0,95,0.00,,,0.00,0,Wunderground v.1.15,2013-08-23 05:29:00,
2013-08-23 00:30:00,68.2,66.7,29.99,NE,52,0.0,0.0,95,0.00,,,0.00,0,Wunderground v.1.15,2013-08-23 05:30:00,
2013-08-23 00:31:00,68.2,66.7,29.99,NE,52,0.0,0.0,95,0.00,,,0.00,0,Wunderground v.1.15,2013-08-23 05:31:00,
2013-08-23 00:32:00,68.2,66.7,29.99,NE,52,0.0,0.0,95,0.00,,,0.00,0,Wunderground v.1.15,2013-08-23 05:32:00,
2013-08-23 00:36:00,68.5,67.0,29.99,NE,52,0.0,0.0,95,0.00,,,0.00,0,Wunderground v.1.15,2013-08-23 05:36:00,
2013-08-23 00:37:00,68.5,67.0,29.99,NE,52,0.0,0.0,95,0.00,,,0.00,0,Wunderground v.1.15,2013-08-23 05:37:00,
2013-08-23 00:38:00,68.5,67.0,29.99,NE,52,0.0,0.0,95,0.00,,,0.00,0,Wunderground v.1.15,2013-08-23 05:38:00,
2013-08-23 00:40:00,68.4,66.9,30.00,NE,52,0.0,0.0,95,0.00,,,0.00,0,Wunderground v.1.15,2013-08-23 05:40:00,
2013-08-23 00:42:00,68.1,66.3,30.00,NE,52,0.0,0.0,94,0.00,,,0.00,0,Wunderground v.1.15,2013-08-23 05:42:00,
2013-08-23 00:43:00,67.9,66.1,29.99,NE,52,0.0,0.0,94,0.00,,,0.00,0,Wunderground v.1.15,2013-08-23 05:43:00,
2013-08-23 00:45:00,67.6,65.8,29.99,NE,52,0.0,0.0,94,0.00,,,0.00,0,Wunderground v.1.15,2013-08-23 05:45:00,
2013-08-23 00:47:00,67.3,65.5,29.99,NE,52,0.0,0.0,94,0.00,,,0.00,0,Wunderground v.1.15,2013-08-23 05:47:00,
2013-08-23 00:48:00,67.2,65.4,29.99,NE,52,0.0,0.0,94,0.00,,,0.00,0,Wunderground v.1.15,2013-08-23 05:48:00,
2013-08-23 00:49:00,67.1,65.3,29.99,NE,52,0.0,0.0,94,0.00,,,0.00,0,Wunderground v.1.15,2013-08-23 05:49:00,
2013-08-23 00:50:00,67.0,65.2,29.99,NE,52,0.0,0.0,94,0.00,,,0.00,0,Wunderground v.1.15,2013-08-23 05:50:00,
2013-08-23 00:51:00,67.0,65.2,29.99,NE,52,0.0,0.0,94,0.00,,,0.00,0,Wunderground v.1.15,2013-08-23 05:51:00,
2013-08-23 00:55:00,67.2,66.0,29.99,NE,52,0.0,0.0,96,0.00,,,0.00,0,Wunderground v.1.15,2013-08-23 05:55:00,
2013-08-23 00:56:00,67.6,66.4,29.99,NE,52,0.0,0.0,96,0.00,,,0.00,0,Wunderground v.1.15,2013-08-23 05:56:00,
2013-08-23 00:59:00,68.2,67.0,29.99,NE,52,0.0,0.0,96,0.00,,,0.00,0,Wunderground v.1.15,2013-08-23 05:59:00,
2013-08-23 01:02:00,68.4,67.2,29.99,NE,52,0.0,0.0,96,0.00,,,0.00,0,Wunderground v.1.15,2013-08-23 06:02:00,
2013-08-23 01:03:00,68.5,67.3,29.99,NE,52,0.0,0.0,96,0.00,,,0.00,0,Wunderground v.1.15,2013-08-23 06:03:00,
2013-08-23 01:05:00,68.5,67.3,29.99,NE,52,0.0,0.0,96,0.00,,,0.00,0,Wunderground v.1.15,2013-08-23 06:05:00,
2013-08-23 01:07:00,68.6,67.1,29.99,NE,52,0.0,0.0,95,0.00,,,0.00,0,Wunderground v.1.15,2013-08-23 06:07:00,
2013-08-23 01:08:00,68.6,67.1,29.99,NE,52,0.0,0.0,95,0.00,,,0.00,0,Wunderground v.1.15,2013-08-23 06:08:00,
2013-08-23 01:09:00,68.6,67.1,29.99,NE,52,3.0,3.0,95,0.00,,,0.00,0,Wunderground v.1.15,2013-08-23 06:09:00,
2013-08-23 01:10:00,68.7,67.2,29.99,NE,52,1.0,1.0,95,0.00,,,0.00,0,Wunderground v.1.15,2013-08-23 06:10:00,
2013-08-23 01:12:00,68.7,67.2,29.99,NE,52,1.0,2.0,95,0.00,,,0.00,0,Wunderground v.1.15,2013-08-23 06:12:00,
2013-08-23 01:13:00,68.8,67.3,29.99,NE,52,1.0,2.0,95,0.00,,,0.00,0,Wunderground v.1.15,2013-08-23 06:13:00,
2013-08-23 01:16:00,68.8,67.3,29.99,NE,52,2.0,2.0,95,0.00,,,0.00,0,Wunderground v.1.15,2013-08-23 06:16:00,
2013-08-23 01:18:00,68.9,67.4,29.99,NE,52,2.0,2.0,95,0.00,,,0.00,0,Wunderground v.1.15,2013-08-23 06:18:00,
2013-08-23 01:20:00,68.9,67.4,29.99,NE,52,1.0,1.0,95,0.00,,,0.00,0,Wunderground v.1.15,2013-08-23 06:20:00,
2013-08-23 01:21:00,68.9,67.4,29.99,NE,52,2.0,2.0,95,0.00,,,0.00,0,Wunderground v.1.15,2013-08-23 06:21:00,
2013-08-23 01:22:00,69.0,67.5,29.99,NE,52,2.0,2.0,95,0.00,,,0.00,0,Wunderground v.1.15,2013-08-23 06:22:00,
2013-08-23 01:24:00,69.0,67.5,29.99,NE,52,1.0,2.0,95,0.00,,,0.00,0,Wunderground v.1.15,2013-08-23 06:24:00,
2013-08-23 01:28:00,69.0,67.5,29.99,NE,52,0.0,2.0,95,0.00,,,0.00,0,Wunderground v.1.15,2013-08-23 06:28:00,
2013-08-23 01:30:00,68.8,67.3,29.99,NE,52,0.0,1.0,95,0.00,,,0.00,0,Wunderground v.1.15,2013-08-23 06:30:00,
2013-08-23 01:31:00,68.8,67.3,29.99,NE,52,0.0,1.0,95,0.00,,,0.00,0,Wunderground v.1.15,2013-08-23 06:31:00,
2013-08-23 01:33:00,68.7,66.9,29.99,NE,52,0.0,1.0,94,0.00,,,0.00,0,Wunderground v.1.15,2013-08-23 06:33:00,
2013-08-23 01:35:00,68.6,66.8,29.99,NE,52,0.0,1.0,94,0.00,,,0.00,0,Wunderground v.1.15,2013-08-23 06:35:00,
2013-08-23 01:36:00,68.5,66.7,29.99,NE,52,0.0,1.0,94,0.00,,,0.00,0,Wunderground v.1.15,2013-08-23 06:36:00,
2013-08-23 01:37:00,68.4,66.6,29.99,NE,52,0.0,1.0,94,0.00,,,0.00,0,Wunderground v.1.15,2013-08-23 06:37:00,
2013-08-23 01:42:00,67.9,66.1,29.99,NE,52,0.0,0.0,94,0.00,,,0.00,0,Wunderground v.1.15,2013-08-23 06:42:00,
2013-08-23 01:43:00,67.8,66.0,29.99,NE,52,0.0,0.0,94,0.00,,,0.00,0,Wunderground v.1.15,2013-08-23 06:43:00,
2013-08-23 01:48:00,67.7,66.2,29.99,ENE,58,1.0,3.0,95,0.00,,,0.00,0,Wunderground v.1.15,2013-08-23 06:48:00,
2013-08-23 01:49:00,67.8,66.3,29.99,ENE,58,0.0,3.0,95,0.00,,,0.00,0,Wunderground v.1.15,2013-08-23 06:49:00,
2013-08-23 01:50:00,67.8,66.3,29.99,ENE,58,1.0,1.0,95,0.00,,,0.00,0,Wunderground v.1.15,2013-08-23 06:50:00,
2013-08-23 01:53:00,67.9,66.4,29.99,ENE,61,2.0,2.0,95,0.00,,,0.00,0,Wunderground v.1.15,2013-08-23 06:53:00,
2013-08-23 01:55:00,68.0,66.5,29.99,ENE,61,1.0,2.0,95,0.00,,,0.00,0,Wunderground v.1.15,2013-08-23 06:55:00,
2013-08-23 01:56:00,68.1,66.6,29.99,ENE,61,0.0,2.0,95,0.00,,,0.00,0,Wunderground v.1.15,2013-08-23 06:56:00,
2013-08-23 01:57:00,68.1,66.6,29.99,ENE,61,0.0,2.0,95,0.00,,,0.00,0,Wunderground v.1.15,2013-08-23 06:57:00,
2013-08-23 02:01:00,68.2,66.7,29.99,ENE,62,1.0,1.0,95,0.00,,,0.00,0,Wunderground v.1.15,2013-08-23 07:01:00,
2013-08-23 02:03:00,68.2,66.7,29.99,ENE,63,1.0,1.0,95,0.00,,,0.00,0,Wunderground v.1.15,2013-08-23 07:03:00,
2013-08-23 02:06:00,68.2,66.7,29.99,ENE,65,0.0,2.0,95,0.00,,,0.00,0,Wunderground v.1.15,2013-08-23 07:06:00,
2013-08-23 02:07:00,68.1,66.6,29.99,ENE,65,0.0,2.0,95,0.00,,,0.00,0,Wunderground v.1.15,2013-08-23 07:07:00,
2013-08-23 02:08:00,68.1,66.6,29.99,ENE,65,0.0,2.0,95,0.00,,,0.00,0,Wunderground v.1.15,2013-08-23 07:08:00,
2013-08-23 02:11:00,68.1,66.6,29.99,ENE,65,0.0,2.0,95,0.00,,,0.00,0,Wunderground v.1.15,2013-08-23 07:11:00,
2013-08-23 02:12:00,68.1,66.6,29.99,ENE,65,0.0,2.0,95,0.00,,,0.00,0,Wunderground v.1.15,2013-08-23 07:12:00,
2013-08-23 02:13:00,68.1,66.6,29.99,ENE,65,0.0,2.0,95,0.00,,,0.00,0,Wunderground v.1.15,2013-08-23 07:13:00,
2013-08-23 02:16:00,68.1,66.6,29.99,ENE,65,0.0,2.0,95,0.00,,,0.00,0,Wunderground v.1.15,2013-08-23 07:16:00,
2013-08-23 02:17:00,68.1,66.6,29.99,ENE,65,0.0,2.0,95,0.00,,,0.00,0,Wunderground v.1.15,2013-08-23 07:17:00,
2013-08-23 02:19:00,68.0,66.5,29.99,ENE,65,0.0,2.0,95,0.00,,,0.00,0,Wunderground v.1.15,2013-08-23 07:19:00,
2013-08-23 02:22:00,68.0,66.5,29.99,ENE,65,0.0,0.0,95,0.00,,,0.00,0,Wunderground v.1.15,2013-08-23 07:22:00,
2013-08-23 02:24:00,68.0,66.5,29.99,ENE,65,0.0,0.0,95,0.00,,,0.00,0,Wunderground v.1.15,2013-08-23 07:24:00,
2013-08-23 02:27:00,67.9,66.4,30.00,ENE,65,0.0,0.0,95,0.00,,,0.00,0,Wunderground v.1.15,2013-08-23 07:27:00,
2013-08-23 02:28:00,67.9,66.4,30.00,ENE,65,0.0,0.0,95,0.00,,,0.00,0,Wunderground v.1.15,2013-08-23 07:28:00,
2013-08-23 02:29:00,67.9,66.4,30.00,ENE,66,0.0,0.0,95,0.00,,,0.00,0,Wunderground v.1.15,2013-08-23 07:29:00,
2013-08-23 02:32:00,68.0,66.5,29.99,ENE,67,0.0,0.0,95,0.00,,,0.00,0,Wunderground v.1.15,2013-08-23 07:32:00,
2013-08-23 02:33:00,68.1,66.6,29.99,ENE,70,0.0,0.0,95,0.00,,,0.00,0,Wunderground v.1.15,2013-08-23 07:33:00,
2013-08-23 02:35:00,68.1,66.6,29.99,East,97,0.0,2.0,95,0.00,,,0.00,0,Wunderground v.1.15,2013-08-23 07:35:00,
2013-08-23 02:37:00,68.2,66.7,29.99,East,98,2.0,2.0,95,0.00,,,0.00,0,Wunderground v.1.15,2013-08-23 07:37:00,
2013-08-23 02:38:00,68.2,66.7,29.99,East,94,3.0,3.0,95,0.00,,,0.00,0,Wunderground v.1.15,2013-08-23 07:38:00,
2013-08-23 02:40:00,68.3,66.8,29.99,East,101,2.0,2.0,95,0.00,,,0.00,0,Wunderground v.1.15,2013-08-23 07:40:00,
2013-08-23 02:42:00,68.4,66.9,29.99,East,98,0.0,3.0,95,0.00,,,0.00,0,Wunderground v.1.15,2013-08-23 07:42:00,
2013-08-23 02:43:00,68.4,66.9,29.99,East,98,0.0,3.0,95,0.00,,,0.00,0,Wunderground v.1.15,2013-08-23 07:43:00,
2013-08-23 02:45:00,68.4,66.9,29.99,East,98,1.0,3.0,95,0.00,,,0.00,0,Wunderground v.1.15,2013-08-23 07:45:00,
2013-08-23 02:47:00,68.5,67.0,29.99,East,100,1.0,3.0,95,0.00,,,0.00,0,Wunderground v.1.15,2013-08-23 07:47:00,
2013-08-23 02:48:00,68.5,67.0,30.00,East,101,1.0,3.0,95,0.00,,,0.00,0,Wunderground v.1.15,2013-08-23 07:48:00,
2013-08-23 02:49:00,68.5,67.0,30.00,East,101,1.0,3.0,95,0.00,,,0.00,0,Wunderground v.1.15,2013-08-23 07:49:00,
2013-08-23 02:50:00,68.5,67.0,30.00,East,101,0.0,1.0,95,0.00,,,0.00,0,Wunderground v.1.15,2013-08-23 07:50:00,
2013-08-23 02:52:00,68.5,67.0,30.00,ESE,102,0.0,1.0,95,0.00,,,0.00,0,Wunderground v.1.15,2013-08-23 07:52:00,
2013-08-23 02:53:00,68.5,67.0,30.00,ESE,103,1.0,1.0,95,0.00,,,0.00,0,Wunderground v.1.15,2013-08-23 07:53:00,
2013-08-23 02:55:00,68.5,67.0,30.00,ESE,103,1.0,1.0,95,0.00,,,0.00,0,Wunderground v.1.15,2013-08-23 07:55:00,
2013-08-23 02:57:00,68.5,67.0,29.99,ESE,103,1.0,2.0,95,0.00,,,0.00,0,Wunderground v.1.15,2013-08-23 07:57:00,
2013-08-23 02:59:00,68.5,67.0,30.00,ESE,103,0.0,2.0,95,0.00,,,0.00,0,Wunderground v.1.15,2013-08-23 07:59:00,
2013-08-23 03:00:00,68.5,67.0,29.99,ESE,103,0.0,0.0,95,0.00,,,0.00,0,Wunderground v.1.15,2013-08-23 08:00:00,
2013-08-23 03:03:00,68.4,66.9,30.00,ESE,102,1.0,3.0,95,0.00,,,0.00,0,Wunderground v.1.15,2013-08-23 08:03:00,
2013-08-23 03:04:00,68.4,66.9,29.99,ESE,102,0.0,3.0,95,0.00,,,0.00,0,Wunderground v.1.15,2013-08-23 08:04:00,
2013-08-23 03:05:00,68.4,66.9,29.99,ESE,102,0.0,3.0,95,0.00,,,0.00,0,Wunderground v.1.15,2013-08-23 08:05:00,
2013-08-23 03:08:00,68.4,66.9,29.99,ESE,103,0.0,3.0,95,0.00,,,0.00,0,Wunderground v.1.15,2013-08-23 08:08:00,
2013-08-23 03:10:00,68.4,66.9,29.99,ESE,103,0.0,0.0,95,0.00,,,0.00,0,Wunderground v.1.15,2013-08-23 08:10:00,
2013-08-23 03:11:00,68.4,66.9,30.00,ESE,103,0.0,0.0,95,0.00,,,0.00,0,Wunderground v.1.15,2013-08-23 08:11:00,
2013-08-23 03:13:00,68.4,66.9,30.00,ESE,103,2.0,4.0,95,0.00,,,0.00,0,Wunderground v.1.15,2013-08-23 08:13:00,
2013-08-23 03:15:00,68.4,66.9,30.00,ESE,103,0.0,4.0,95,0.00,,,0.00,0,Wunderground v.1.15,2013-08-23 08:15:00,
2013-08-23 03:16:00,68.4,66.9,30.00,ESE,103,0.0,4.0,95,0.00,,,0.00,0,Wunderground v.1.15,2013-08-23 08:16:00,
2013-08-23 03:18:00,68.3,66.8,30.00,ESE,103,1.0,4.0,95,0.00,,,0.00,0,Wunderground v.1.15,2013-08-23 08:18:00,
2013-08-23 03:20:00,68.3,66.8,30.00,ESE,103,1.0,1.0,95,0.00,,,0.00,0,Wunderground v.1.15,2013-08-23 08:20:00,
2013-08-23 03:21:00,68.3,66.8,30.00,ESE,103,1.0,2.0,95,0.00,,,0.00,0,Wunderground v.1.15,2013-08-23 08:21:00,
2013-08-23 03:24:00,68.3,66.8,30.00,ESE,103,1.0,3.0,95,0.00,,,0.00,0,Wunderground v.1.15,2013-08-23 08:24:00,
2013-08-23 03:25:00,68.3,66.8,30.00,ESE,103,0.0,3.0,95,0.00,,,0.00,0,Wunderground v.1.15,2013-08-23 08:25:00,
2013-08-23 03:26:00,68.3,66.8,30.00,ESE,103,1.0,3.0,95,0.00,,,0.00,0,Wunderground v.1.15,2013-08-23 08:26:00,
2013-08-23 03:29:00,68.3,66.8,30.00,ESE,102,0.0,3.0,95,0.00,,,0.00,0,Wunderground v.1.15,2013-08-23 08:29:00,
2013-08-23 03:30:00,68.3,66.8,30.00,ESE,102,1.0,1.0,95,0.00,,,0.00,0,Wunderground v.1.15,2013-08-23 08:30:00,
2013-08-23 03:31:00,68.3,66.8,30.00,ESE,102,0.0,3.0,95,0.00,,,0.00,0,Wunderground v.1.15,2013-08-23 08:31:00,
2013-08-23 03:34:00,68.3,66.8,30.00,ESE,102,0.0,3.0,95,0.00,,,0.00,0,Wunderground v.1.15,2013-08-23 08:34:00,
2013-08-23 03:36:00,68.3,66.8,30.00,ESE,102,0.0,3.0,95,0.00,,,0.00,0,Wunderground v.1.15,2013-08-23 08:36:00,
2013-08-23 03:39:00,68.3,66.8,30.00,ESE,102,0.0,3.0,95,0.00,,,0.00,0,Wunderground v.1.15,2013-08-23 08:39:00,
2013-08-23 03:41:00,68.3,66.8,30.00,ESE,102,0.0,0.0,95,0.00,,,0.00,0,Wunderground v.1.15,2013-08-23 08:41:00,
2013-08-23 03:42:00,68.3,66.8,30.00,ESE,102,0.0,0.0,95,0.00,,,0.00,0,Wunderground v.1.15,2013-08-23 08:42:00,
2013-08-23 03:44:00,68.4,66.9,30.00,ESE,102,1.0,1.0,95,0.00,,,0.00,0,Wunderground v.1.15,2013-08-23 08:44:00,
2013-08-23 03:46:00,68.5,67.0,30.00,ESE,107,2.0,5.0,95,0.00,,,0.00,0,Wunderground v.1.15,2013-08-23 08:46:00,
2013-08-23 03:47:00,68.5,67.0,30.00,ESE,107,1.0,5.0,95,0.00,,,0.00,0,Wunderground v.1.15,2013-08-23 08:47:00,
2013-08-23 03:49:00,68.5,67.0,30.00,ESE,107,0.0,5.0,95,0.00,,,0.00,0,Wunderground v.1.15,2013-08-23 08:49:00,
2013-08-23 03:52:00,68.5,67.0,30.00,ESE,108,2.0,2.0,95,0.00,,,0.00,0,Wunderground v.1.15,2013-08-23 08:52:00,
2013-08-23 03:53:00,68.5,67.0,30.00,ESE,111,1.0,2.0,95,0.00,,,0.00,0,Wunderground v.1.15,2013-08-23 08:53:00,
2013-08-23 03:54:00,68.5,67.0,30.00,ESE,111,0.0,2.0,95,0.00,,,0.00,0,Wunderground v.1.15,2013-08-23 08:54:00,
2013-08-23 03:57:00,68.5,67.0,30.00,ESE,111,1.0,2.0,95,0.00,,,0.00,0,Wunderground v.1.15,2013-08-23 08:57:00,
2013-08-23 03:58:00,68.5,67.0,30.00,ESE,111,0.0,2.0,95,0.00,,,0.00,0,Wunderground v.1.15,2013-08-23 08:58:00,
2013-08-23 03:59:00,68.5,67.0,30.00,ESE,111,0.0,2.0,95,0.00,,,0.00,0,Wunderground v.1.15,2013-08-23 08:59:00,
2013-08-23 04:02:00,68.5,67.0,30.00,ESE,111,0.0,1.0,95,0.00,,,0.00,0,Wunderground v.1.15,2013-08-23 09:02:00,
2013-08-23 04:03:00,68.5,67.0,30.00,ESE,111,0.0,1.0,95,0.00,,,0.00,0,Wunderground v.1.15,2013-08-23 09:03:00,
2013-08-23 04:04:00,68.5,67.0,30.00,ESE,111,0.0,1.0,95,0.00,,,0.00,0,Wunderground v.1.15,2013-08-23 09:04:00,
2013-08-23 04:07:00,68.5,67.0,30.00,ESE,111,0.0,1.0,95,0.00,,,0.00,0,Wunderground v.1.15,2013-08-23 09:07:00,
2013-08-23 04:08:00,68.5,67.0,30.00,ESE,111,0.0,1.0,95,0.00,,,0.00,0,Wunderground v.1.15,2013-08-23 09:08:00,
2013-08-23 04:09:00,68.4,66.9,30.00,ESE,111,0.0,1.0,95,0.00,,,0.00,0,Wunderground v.1.15,2013-08-23 09:09:00,
2013-08-23 04:12:00,68.3,66.8,30.00,ESE,111,0.0,0.0,95,0.00,,,0.00,0,Wunderground v.1.15,2013-08-23 09:12:00,
2013-08-23 04:13:00,68.3,66.8,30.00,ESE,111,0.0,0.0,95,0.00,,,0.00,0,Wunderground v.1.15,2013-08-23 09:13:00,
2013-08-23 04:15:00,68.3,66.8,30.00,ESE,111,0.0,0.0,95,0.00,,,0.00,0,Wunderground v.1.15,2013-08-23 09:15:00,
2013-08-23 04:17:00,68.3,66.8,30.00,ESE,111,1.0,2.0,95,0.00,,,0.00,0,Wunderground v.1.15,2013-08-23 09:17:00,
2013-08-23 04:18:00,68.3,66.8,30.00,ESE,114,2.0,3.0,95,0.00,,,0.00,0,Wunderground v.1.15,2013-08-23 09:18:00,
2013-08-23 04:20:00,68.3,66.8,30.00,ESE,114,1.0,2.0,95,0.00,,,0.00,0,Wunderground v.1.15,2013-08-23 09:20:00,
2013-08-23 04:22:00,68.3,66.8,30.00,ESE,114,2.0,3.0,95,0.00,,,0.00,0,Wunderground v.1.15,2013-08-23 09:22:00,
2013-08-23 04:23:00,68.3,67.1,30.00,ESE,114,0.0,3.0,96,0.00,,,0.00,0,Wunderground v.1.15,2013-08-23 09:23:00,
2013-08-23 04:24:00,68.3,67.1,30.00,ESE,117,1.0,4.0,96,0.00,,,0.00,0,Wunderground v.1.15,2013-08-23 09:24:00,
2013-08-23 04:25:00,68.3,67.1,30.00,ESE,117,1.0,4.0,96,0.00,,,0.00,0,Wunderground v.1.15,2013-08-23 09:25:00,
2013-08-23 04:27:00,68.2,66.7,30.00,ESE,117,0.0,4.0,95,0.00,,,0.00,0,Wunderground v.1.15,2013-08-23 09:27:00,
2013-08-23 04:28:00,68.2,66.7,30.00,ESE,117,0.0,4.0,95,0.00,,,0.00,0,Wunderground v.1.15,2013-08-23 09:28:00,
2013-08-23 04:30:00,68.2,66.7,30.00,ESE,117,1.0,1.0,95,0.00,,,0.00,0,Wunderground v.1.15,2013-08-23 09:30:00,
2013-08-23 04:32:00,68.1,66.6,30.00,ESE,117,0.0,2.0,95,0.00,,,0.00,0,Wunderground v.1.15,2013-08-23 09:32:00,
2013-08-23 04:33:00,68.1,66.6,30.00,ESE,117,0.0,2.0,95,0.00,,,0.00,0,Wunderground v.1.15,2013-08-23 09:33:00,
2013-08-23 04:35:00,68.0,66.5,30.00,ESE,117,0.0,2.0,95,0.00,,,0.00,0,Wunderground v.1.15,2013-08-23 09:35:00,
2013-08-23 04:36:00,68.0,66.5,30.00,ESE,117,0.0,2.0,95,0.00,,,0.00,0,Wunderground v.1.15,2013-08-23 09:36:00,
2013-08-23 04:37:00,68.0,66.5,30.00,ESE,117,0.0,2.0,95,0.00,,,0.00,0,Wunderground v.1.15,2013-08-23 09:37:00,
2013-08-23 04:38:00,68.0,66.5,30.00,ESE,117,0.0,2.0,95,0.00,,,0.00,0,Wunderground v.1.15,2013-08-23 09:38:00,
2013-08-23 04:40:00,68.0,66.8,30.00,ESE,117,0.0,0.0,96,0.00,,,0.00,0,Wunderground v.1.15,2013-08-23 09:40:00,
2013-08-23 04:41:00,68.0,66.8,30.00,ESE,117,0.0,0.0,96,0.00,,,0.00,0,Wunderground v.1.15,2013-08-23 09:41:00,
2013-08-23 04:42:00,67.9,66.7,30.00,ESE,117,0.0,2.0,96,0.00,,,0.00,0,Wunderground v.1.15,2013-08-23 09:42:00,
2013-08-23 04:43:00,67.9,66.7,30.00,ESE,117,0.0,2.0,96,0.00,,,0.00,0,Wunderground v.1.15,2013-08-23 09:43:00,
2013-08-23 04:45:00,67.9,66.7,30.00,ESE,117,0.0,2.0,96,0.00,,,0.00,0,Wunderground v.1.15,2013-08-23 09:45:00,
2013-08-23 04:46:00,67.8,66.6,30.00,ESE,117,0.0,2.0,96,0.00,,,0.00,0,Wunderground v.1.15,2013-08-23 09:46:00,
2013-08-23 04:47:00,67.8,66.6,30.00,ESE,117,0.0,2.0,96,0.00,,,0.00,0,Wunderground v.1.15,2013-08-23 09:47:00,
2013-08-23 04:48:00,67.8,66.6,30.00,ESE,117,0.0,2.0,96,0.00,,,0.00,0,Wunderground v.1.15,2013-08-23 09:48:00,
2013-08-23 04:49:00,67.8,66.6,30.00,ESE,117,0.0,2.0,96,0.00,,,0.00,0,Wunderground v.1.15,2013-08-23 09:49:00,
2013-08-23 04:50:00,67.8,66.6,30.00,ESE,117,0.0,0.0,96,0.00,,,0.00,0,Wunderground v.1.15,2013-08-23 09:50:00,
2013-08-23 04:51:00,67.8,66.6,30.00,ESE,117,0.0,0.0,96,0.00,,,0.00,0,Wunderground v.1.15,2013-08-23 09:51:00,
2013-08-23 04:52:00,67.8,66.6,30.00,ESE,117,0.0,0.0,96,0.00,,,0.00,0,Wunderground v.1.15,2013-08-23 09:52:00,
2013-08-23 04:53:00,67.7,66.5,30.00,ESE,117,0.0,0.0,96,0.00,,,0.00,0,Wunderground v.1.15,2013-08-23 09:53:00,
2013-08-23 04:54:00,67.7,66.5,30.00,ESE,117,0.0,0.0,96,0.00,,,0.00,0,Wunderground v.1.15,2013-08-23 09:54:00,
2013-08-23 04:56:00,67.7,66.5,30.00,ESE,117,0.0,0.0,96,0.00,,,0.00,0,Wunderground v.1.15,2013-08-23 09:56:00,
2013-08-23 04:57:00,67.7,66.5,30.00,ESE,117,0.0,0.0,96,0.00,,,0.00,0,Wunderground v.1.15,2013-08-23 09:57:00,
2013-08-23 04:58:00,67.7,66.5,30.00,ESE,117,0.0,0.0,96,0.00,,,0.00,0,Wunderground v.1.15,2013-08-23 09:58:00,
2013-08-23 04:59:00,67.7,66.5,30.00,ESE,117,0.0,0.0,96,0.00,,,0.00,0,Wunderground v.1.15,2013-08-23 09:59:00,
2013-08-23 05:00:00,67.6,66.4,30.00,ESE,117,0.0,0.0,96,0.00,,,0.00,0,Wunderground v.1.15,2013-08-23 10:00:00,
2013-08-23 05:01:00,67.6,66.4,30.00,ESE,117,0.0,0.0,96,0.00,,,0.00,0,Wunderground v.1.15,2013-08-23 10:01:00,
2013-08-23 05:02:00,67.6,66.4,30.00,ESE,117,0.0,0.0,96,0.00,,,0.00,0,Wunderground v.1.15,2013-08-23 10:02:00,
2013-08-23 05:03:00,67.6,66.4,30.00,ESE,116,0.0,4.0,96,0.00,,,0.00,0,Wunderground v.1.15,2013-08-23 10:03:00,
2013-08-23 05:04:00,67.6,66.4,30.00,ESE,116,0.0,4.0,96,0.00,,,0.00,0,Wunderground v.1.15,2013-08-23 10:04:00,
2013-08-23 05:06:00,67.6,66.4,30.00,ESE,116,1.0,4.0,96,0.00,,,0.00,0,Wunderground v.1.15,2013-08-23 10:06:00,
2013-08-23 05:07:00,67.6,66.4,30.00,ESE,116,1.0,4.0,96,0.00,,,0.00,0,Wunderground v.1.15,2013-08-23 10:07:00,
2013-08-23 05:08:00,67.6,66.4,30.00,ESE,116,1.0,4.0,96,0.00,,,0.00,0,Wunderground v.1.15,2013-08-23 10:08:00,
2013-08-23 05:09:00,67.6,66.4,30.00,ESE,116,1.0,4.0,96,0.00,,,0.00,0,Wunderground v.1.15,2013-08-23 10:09:00,
2013-08-23 05:11:00,67.7,66.5,30.00,ESE,114,1.0,2.0,96,0.00,,,0.00,0,Wunderground v.1.15,2013-08-23 10:11:00,
2013-08-23 05:12:00,67.7,66.5,30.00,ESE,114,0.0,2.0,96,0.00,,,0.00,0,Wunderground v.1.15,2013-08-23 10:12:00,
2013-08-23 05:13:00,67.7,66.5,30.00,ESE,114,0.0,2.0,96,0.00,,,0.00,0,Wunderground v.1.15,2013-08-23 10:13:00,
2013-08-23 05:14:00,67.7,66.5,30.00,ESE,114,0.0,2.0,96,0.00,,,0.00,0,Wunderground v.1.15,2013-08-23 10:14:00,
2013-08-23 05:16:00,67.7,66.5,30.00,ESE,114,0.0,2.0,96,0.00,,,0.00,0,Wunderground v.1.15,2013-08-23 10:16:00,
2013-08-23 05:17:00,67.7,66.5,30.00,ESE,114,0.0,2.0,96,0.00,,,0.00,0,Wunderground v.1.15,2013-08-23 10:17:00,
2013-08-23 05:19:00,67.7,66.5,30.00,ESE,114,0.0,2.0,96,0.00,,,0.00,0,Wunderground v.1.15,2013-08-23 10:19:00,
2013-08-23 05:21:00,67.7,66.5,30.00,ESE,114,0.0,0.0,96,0.00,,,0.00,0,Wunderground v.1.15,2013-08-23 10:21:00,
2013-08-23 05:22:00,67.6,66.4,30.00,ESE,114,0.0,0.0,96,0.00,,,0.00,0,Wunderground v.1.15,2013-08-23 10:22:00,
2013-08-23 05:24:00,67.5,66.3,30.00,ESE,114,0.0,1.0,96,0.00,,,0.00,0,Wunderground v.1.15,2013-08-23 10:24:00,
2013-08-23 05:26:00,67.4,66.2,30.00,ESE,114,0.0,1.0,96,0.00,,,0.00,0,Wunderground v.1.15,2013-08-23 10:26:00,
2013-08-23 05:27:00,67.5,66.3,30.00,ESE,114,0.0,1.0,96,0.00,,,0.00,0,Wunderground v.1.15,2013-08-23 10:27:00,
2013-08-23 05:29:00,67.5,66.3,30.00,ESE,114,0.0,1.0,96,0.00,,,0.00,0,Wunderground v.1.15,2013-08-23 10:29:00,
2013-08-23 05:30:00,67.5,66.3,30.00,ESE,114,0.0,0.0,96,0.00,,,0.00,0,Wunderground v.1.15,2013-08-23 10:30:00,
2013-08-23 05:32:00,67.4,66.2,30.00,ESE,114,0.0,0.0,96,0.00,,,0.00,0,Wunderground v.1.15,2013-08-23 10:32:00,
2013-08-23 05:33:00,67.4,66.2,30.00,ESE,114,0.0,0.0,96,0.00,,,0.00,0,Wunderground v.1.15,2013-08-23 10:33:00,
2013-08-23 05:34:00,67.4,66.2,30.00,ESE,114,0.0,0.0,96,0.00,,,0.00,0,Wunderground v.1.15,2013-08-23 10:34:00,
2013-08-23 05:35:00,67.4,66.2,30.00,ESE,114,0.0,0.0,96,0.00,,,0.00,0,Wunderground v.1.15,2013-08-23 10:35:00,
2013-08-23 05:37:00,67.3,66.1,30.00,ESE,114,0.0,0.0,96,0.00,,,0.00,0,Wunderground v.1.15,2013-08-23 10:37:00,
2013-08-23 05:39:00,67.2,66.0,30.00,ESE,114,0.0,0.0,96,0.00,,,0.00,0,Wunderground v.1.15,2013-08-23 10:39:00,
2013-08-23 05:40:00,67.2,66.0,30.00,ESE,114,0.0,0.0,96,0.00,,,0.00,0,Wunderground v.1.15,2013-08-23 10:40:00,
2013-08-23 05:42:00,67.2,66.0,30.00,ESE,114,0.0,0.0,96,0.00,,,0.00,0,Wunderground v.1.15,2013-08-23 10:42:00,
2013-08-23 05:44:00,67.2,66.3,30.00,ESE,114,0.0,0.0,97,0.00,,,0.00,0,Wunderground v.1.15,2013-08-23 10:44:00,
2013-08-23 05:45:00,67.2,66.3,30.00,ESE,114,0.0,0.0,97,0.00,,,0.00,0,Wunderground v.1.15,2013-08-23 10:45:00,
2013-08-23 05:47:00,67.2,66.0,30.00,ESE,114,0.0,0.0,96,0.00,,,0.00,0,Wunderground v.1.15,2013-08-23 10:47:00,
2013-08-23 05:48:00,67.2,66.0,30.00,ESE,114,0.0,0.0,96,0.00,,,0.00,0,Wunderground v.1.15,2013-08-23 10:48:00,
2013-08-23 05:50:00,67.2,66.3,30.00,ESE,114,0.0,0.0,97,0.00,,,0.00,0,Wunderground v.1.15,2013-08-23 10:50:00,
2013-08-23 05:53:00,67.1,66.2,30.00,ESE,114,0.0,0.0,97,0.00,,,0.00,0,Wunderground v.1.15,2013-08-23 10:53:00,
2013-08-23 05:55:00,67.1,66.2,30.00,ESE,114,0.0,0.0,97,0.00,,,0.00,0,Wunderground v.1.15,2013-08-23 10:55:00,
2013-08-23 05:58:00,67.0,66.1,30.00,ESE,114,2.0,3.0,97,0.00,,,0.00,0,Wunderground v.1.15,2013-08-23 10:58:00,
2013-08-23 06:00:00,67.0,66.1,30.00,ESE,114,1.0,1.0,97,0.00,,,0.00,0,Wunderground v.1.15,2013-08-23 11:00:00,
2013-08-23 06:03:00,66.9,65.7,30.00,ESE,112,1.0,3.0,96,0.00,,,0.00,0,Wunderground v.1.15,2013-08-23 11:03:00,
2013-08-23 06:04:00,67.0,65.8,30.00,ESE,112,1.0,3.0,96,0.00,,,0.00,0,Wunderground v.1.15,2013-08-23 11:04:00,
2013-08-23 06:05:00,67.0,66.1,30.00,ESE,112,0.0,3.0,97,0.00,,,0.00,0,Wunderground v.1.15,2013-08-23 11:05:00,
2013-08-23 06:08:00,67.1,66.2,30.00,ESE,109,1.0,3.0,97,0.00,,,0.00,0,Wunderground v.1.15,2013-08-23 11:08:00,
2013-08-23 06:09:00,67.1,66.2,30.00,ESE,109,2.0,3.0,97,0.00,,,0.00,0,Wunderground v.1.15,2013-08-23 11:09:00,
2013-08-23 06:10:00,67.1,66.2,30.00,ESE,107,1.0,2.0,97,0.00,,,0.00,0,Wunderground v.1.15,2013-08-23 11:10:00,
2013-08-23 06:11:00,67.1,66.2,30.00,East,100,1.0,2.0,97,0.00,,,0.00,0,Wunderground v.1.15,2013-08-23 11:11:00,
2013-08-23 06:14:00,67.2,66.3,30.00,East,89,1.0,2.0,97,0.00,,,0.00,0,Wunderground v.1.15,2013-08-23 11:14:00,
2013-08-23 06:15:00,67.2,66.3,30.00,East,85,1.0,2.0,97,0.00,,,0.00,0,Wunderground v.1.15,2013-08-23 11:15:00,
2013-08-23 06:16:00,67.2,66.3,30.00,East,88,1.0,2.0,97,0.00,,,0.00,0,Wunderground v.1.15,2013-08-23 11:16:00,
2013-08-23 06:17:00,67.2,66.3,30.00,East,88,1.0,2.0,97,0.00,,,0.00,0,Wunderground v.1.15,2013-08-23 11:17:00,
2013-08-23 06:19:00,67.3,66.4,30.00,East,88,0.0,2.0,97,0.00,,,0.00,0,Wunderground v.1.15,2013-08-23 11:19:00,
2013-08-23 06:20:00,67.2,66.3,30.00,East,88,0.0,1.0,97,0.00,,,0.00,0,Wunderground v.1.15,2013-08-23 11:20:00,
2013-08-23 06:22:00,67.2,66.3,30.00,East,88,1.0,2.0,97,0.00,,,0.00,0,Wunderground v.1.15,2013-08-23 11:22:00,
2013-08-23 06:25:00,67.2,66.3,30.00,East,89,0.0,3.0,97,0.00,,,0.00,0,Wunderground v.1.15,2013-08-23 11:25:00,
2013-08-23 06:26:00,67.2,66.3,30.00,East,89,1.0,3.0,97,0.00,,,0.00,0,Wunderground v.1.15,2013-08-23 11:26:00,
2013-08-23 06:27:00,67.2,66.3,30.00,East,89,1.0,3.0,97,0.00,,,0.00,0,Wunderground v.1.15,2013-08-23 11:27:00,
2013-08-23 06:30:00,67.2,66.3,30.00,East,92,1.0,1.0,97,0.00,,,0.00,0,Wunderground v.1.15,2013-08-23 11:30:00,
2013-08-23 06:31:00,67.2,66.3,30.00,East,92,0.0,1.0,97,0.00,,,0.00,0,Wunderground v.1.15,2013-08-23 11:31:00,
2013-08-23 06:32:00,67.2,66.3,30.00,East,92,1.0,2.0,97,0.00,,,0.00,0,Wunderground v.1.15,2013-08-23 11:32:00,
2013-08-23 06:35:00,67.2,66.3,30.00,East,92,0.0,2.0,97,0.00,,,0.00,5,Wunderground v.1.15,2013-08-23 11:35:00,
2013-08-23 06:36:00,67.2,66.3,30.00,East,92,0.0,2.0,97,0.00,,,0.00,5,Wunderground v.1.15,2013-08-23 11:36:00,
2013-08-23 06:37:00,67.2,66.3,30.00,East,92,0.0,2.0,97,0.00,,,0.00,7,Wunderground v.1.15,2013-08-23 11:37:00,
2013-08-23 06:40:00,67.2,66.3,30.00,East,92,0.0,0.0,97,0.00,,,0.00,9,Wunderground v.1.15,2013-08-23 11:40:00,
2013-08-23 06:41:00,67.3,66.4,30.00,East,90,2.0,2.0,97,0.00,,,0.00,9,Wunderground v.1.15,2013-08-23 11:41:00,
2013-08-23 06:42:00,67.3,66.4,30.00,East,90,0.0,2.0,97,0.00,,,0.00,9,Wunderground v.1.15,2013-08-23 11:42:00,
2013-08-23 06:45:00,67.3,66.4,30.01,East,91,0.0,2.0,97,0.00,,,0.00,9,Wunderground v.1.15,2013-08-23 11:45:00,
2013-08-23 06:47:00,67.3,66.4,30.01,East,90,1.0,2.0,97,0.00,,,0.00,11,Wunderground v.1.15,2013-08-23 11:47:00,
2013-08-23 06:48:00,67.4,66.5,30.01,East,90,0.0,2.0,97,0.00,,,0.00,11,Wunderground v.1.15,2013-08-23 11:48:00,
2013-08-23 06:50:00,67.3,66.4,30.01,East,90,0.0,1.0,97,0.00,,,0.00,14,Wunderground v.1.15,2013-08-23 11:50:00,
2013-08-23 06:52:00,67.4,66.5,30.01,East,90,1.0,1.0,97,0.00,,,0.00,16,Wunderground v.1.15,2013-08-23 11:52:00,
2013-08-23 06:53:00,67.4,66.5,30.01,East,90,0.0,2.0,97,0.00,,,0.00,18,Wunderground v.1.15,2013-08-23 11:53:00,
2013-08-23 06:56:00,67.4,66.5,30.01,East,90,1.0,2.0,97,0.00,,,0.00,21,Wunderground v.1.15,2013-08-23 11:56:00,
2013-08-23 06:57:00,67.4,66.5,30.01,East,92,0.0,2.0,97,0.00,,,0.00,21,Wunderground v.1.15,2013-08-23 11:57:00,
2013-08-23 06:58:00,67.5,66.6,30.01,East,91,0.0,2.0,97,0.00,,,0.00,25,Wunderground v.1.15,2013-08-23 11:58:00,
2013-08-23 07:01:00,67.6,66.7,30.01,East,101,1.0,5.0,97,0.00,,,0.00,26,Wunderground v.1.15,2013-08-23 12:01:00,
2013-08-23 07:02:00,67.6,66.7,30.01,ESE,106,1.0,5.0,97,0.00,,,0.00,28,Wunderground v.1.15,2013-08-23 12:02:00,
2013-08-23 07:03:00,67.7,66.8,30.01,ESE,106,1.0,5.0,97,0.00,,,0.00,30,Wunderground v.1.15,2013-08-23 12:03:00,
2013-08-23 07:04:00,67.7,66.8,30.01,ESE,103,1.0,5.0,97,0.00,,,0.00,30,Wunderground v.1.15,2013-08-23 12:04:00,
2013-08-23 07:06:00,67.8,66.9,30.01,East,101,1.0,5.0,97,0.00,,,0.00,32,Wunderground v.1.15,2013-08-23 12:06:00,
2013-08-23 07:08:00,67.9,67.0,30.01,ESE,102,2.0,5.0,97,0.00,,,0.00,33,Wunderground v.1.15,2013-08-23 12:08:00,
2013-08-23 07:09:00,67.9,67.0,30.01,ESE,102,1.0,5.0,97,0.00,,,0.00,33,Wunderground v.1.15,2013-08-23 12:09:00,
2013-08-23 07:12:00,68.0,67.1,30.01,East,98,1.0,3.0,97,0.00,,,0.00,35,Wunderground v.1.15,2013-08-23 12:12:00,
2013-08-23 07:13:00,68.1,67.2,30.01,ESE,102,2.0,3.0,97,0.00,,,0.00,39,Wunderground v.1.15,2013-08-23 12:13:00,
2013-08-23 07:14:00,68.1,67.2,30.01,East,101,1.0,3.0,97,0.00,,,0.00,40,Wunderground v.1.15,2013-08-23 12:14:00,
2013-08-23 07:15:00,68.1,67.2,30.01,East,101,1.0,3.0,97,0.00,,,0.00,42,Wunderground v.1.15,2013-08-23 12:15:00,
2013-08-23 07:17:00,68.2,67.3,30.01,ESE,116,1.0,5.0,97,0.00,,,0.00,40,Wunderground v.1.15,2013-08-23 12:17:00,
2013-08-23 07:18:00,68.3,67.4,30.01,SE,127,4.0,5.0,97,0.00,,,0.00,40,Wunderground v.1.15,2013-08-23 12:18:00,
2013-08-23 07:19:00,68.3,67.4,30.01,SE,126,1.0,5.0,97,0.00,,,0.00,40,Wunderground v.1.15,2013-08-23 12:19:00,
2013-08-23 07:20:00,68.3,67.4,30.01,SE,125,1.0,1.0,97,0.00,,,0.00,40,Wunderground v.1.15,2013-08-23 12:20:00,
2013-08-23 07:22:00,68.4,67.5,30.01,ESE,111,4.0,4.0,97,0.00,,,0.00,40,Wunderground v.1.15,2013-08-23 12:22:00,
2013-08-23 07:25:00,68.5,67.6,30.01,ESE,107,1.0,4.0,97,0.00,,,0.00,44,Wunderground v.1.15,2013-08-23 12:25:00,
2013-08-23 07:27:00,68.5,67.6,30.01,ESE,109,1.0,4.0,97,0.00,,,0.00,47,Wunderground v.1.15,2013-08-23 12:27:00,
2013-08-23 07:30:00,68.6,67.7,30.01,ESE,104,1.0,1.0,97,0.00,,,0.00,44,Wunderground v.1.15,2013-08-23 12:30:00,
2013-08-23 07:32:00,68.6,67.7,30.01,ESE,107,2.0,2.0,97,0.00,,,0.00,44,Wunderground v.1.15,2013-08-23 12:32:00,
2013-08-23 07:35:00,68.7,67.8,30.01,East,98,1.0,2.0,97,0.00,,,0.00,49,Wunderground v.1.15,2013-08-23 12:35:00,
2013-08-23 07:36:00,68.7,67.8,30.01,East,99,1.0,2.0,97,0.00,,,0.00,51,Wunderground v.1.15,2013-08-23 12:36:00,
2013-08-23 07:37:00,68.7,67.8,30.01,East,101,0.0,2.0,97,0.00,,,0.00,51,Wunderground v.1.15,2013-08-23 12:37:00,
2013-08-23 07:40:00,68.8,67.9,30.01,East,81,1.0,2.0,97,0.00,,,0.00,56,Wunderground v.1.15,2013-08-23 12:40:00,
2013-08-23 07:41:00,68.8,67.9,30.01,East,83,2.0,2.0,97,0.00,,,0.00,56,Wunderground v.1.15,2013-08-23 12:41:00,
2013-08-23 07:42:00,68.8,67.9,30.01,East,85,3.0,3.0,97,0.00,,,0.00,60,Wunderground v.1.15,2013-08-23 12:42:00,
2013-08-23 07:45:00,68.8,67.9,30.01,East,89,1.0,6.0,97,0.00,,,0.00,69,Wunderground v.1.15,2013-08-23 12:45:00,
2013-08-23 07:46:00,68.8,67.9,30.01,East,93,1.0,6.0,97,0.00,,,0.00,69,Wunderground v.1.15,2013-08-23 12:46:00,
2013-08-23 07:47:00,68.8,67.9,30.01,East,89,0.0,6.0,97,0.00,,,0.00,70,Wunderground v.1.15,2013-08-23 12:47:00,
2013-08-23 07:48:00,68.8,67.9,30.01,East,95,1.0,6.0,97,0.00,,,0.00,72,Wunderground v.1.15,2013-08-23 12:48:00,
2013-08-23 07:51:00,68.9,68.0,30.01,East,94,1.0,5.0,97,0.00,,,0.00,95,Wunderground v.1.15,2013-08-23 12:51:00,
2013-08-23 07:52:00,69.0,68.1,30.01,East,95,1.0,5.0,97,0.00,,,0.00,107,Wunderground v.1.15,2013-08-23 12:52:00,
2013-08-23 07:53:00,69.0,68.1,30.01,East,101,3.0,5.0,97,0.00,,,0.00,105,Wunderground v.1.15,2013-08-23 12:53:00,
2013-08-23 07:56:00,69.2,68.3,30.01,East,98,1.0,5.0,97,0.00,,,0.00,107,Wunderground v.1.15,2013-08-23 12:56:00,
2013-08-23 07:57:00,69.2,68.3,30.01,ESE,103,0.0,5.0,97,0.00,,,0.00,109,Wunderground v.1.15,2013-08-23 12:57:00,
2013-08-23 07:58:00,69.3,68.4,30.01,ESE,106,2.0,5.0,97,0.00,,,0.00,109,Wunderground v.1.15,2013-08-23 12:58:00,
2013-08-23 08:01:00,69.3,68.4,30.01,ESE,109,0.0,2.0,97,0.00,,,0.00,132,Wunderground v.1.15,2013-08-23 13:01:00,
2013-08-23 08:02:00,69.4,68.5,30.01,ESE,113,2.0,4.0,97,0.00,,,0.00,139,Wunderground v.1.15,2013-08-23 13:02:00,
2013-08-23 08:03:00,69.4,68.5,30.01,East,96,2.0,5.0,97,0.00,,,0.00,146,Wunderground v.1.15,2013-08-23 13:03:00,
2013-08-23 08:06:00,69.6,68.7,30.01,ESE,107,1.0,5.0,97,0.00,,,0.00,153,Wunderground v.1.15,2013-08-23 13:06:00,
2013-08-23 08:07:00,69.6,68.7,30.01,ESE,110,2.0,5.0,97,0.00,,,0.00,151,Wunderground v.1.15,2013-08-23 13:07:00,
2013-08-23 08:08:00,69.6,68.7,30.01,ESE,112,0.0,5.0,97,0.00,,,0.00,167,Wunderground v.1.15,2013-08-23 13:08:00,
2013-08-23 08:09:00,69.7,68.8,30.01,ESE,109,0.0,5.0,97,0.00,,,0.00,167,Wunderground v.1.15,2013-08-23 13:09:00,
2013-08-23 08:12:00,69.9,69.0,30.01,ESE,114,1.0,2.0,97,0.00,,,0.00,185,Wunderground v.1.15,2013-08-23 13:12:00,
2013-08-23 08:13:00,70.1,69.2,30.02,ESE,109,1.0,2.0,97,0.00,,,0.00,179,Wunderground v.1.15,2013-08-23 13:13:00,
2013-08-23 08:15:00,70.2,69.0,30.01,ESE,120,1.0,2.0,96,0.00,,,0.00,172,Wunderground v.1.15,2013-08-23 13:15:00,
2013-08-23 08:17:00,70.3,69.1,30.01,ESE,111,0.0,2.0,96,0.00,,,0.00,197,Wunderground v.1.15,2013-08-23 13:17:00,
2013-08-23 08:18:00,70.3,69.1,30.01,East,101,1.0,2.0,96,0.00,,,0.00,148,Wunderground v.1.15,2013-08-23 13:18:00,
2013-08-23 08:20:00,70.4,69.2,30.01,ESE,104,2.0,5.0,96,0.00,,,0.00,160,Wunderground v.1.15,2013-08-23 13:20:00,
2013-08-23 08:22:00,70.5,69.3,30.01,ESE,111,0.0,5.0,96,0.00,,,0.00,225,Wunderground v.1.15,2013-08-23 13:22:00,
2013-08-23 08:23:00,70.5,69.3,30.01,ESE,118,2.0,5.0,96,0.00,,,0.00,176,Wunderground v.1.15,2013-08-23 13:23:00,
2013-08-23 08:25:00,70.6,69.4,30.01,ESE,111,1.0,5.0,96,0.00,,,0.00,181,Wunderground v.1.15,2013-08-23 13:25:00,
2013-08-23 08:27:00,70.6,69.4,30.01,ESE,111,0.0,5.0,96,0.00,,,0.00,179,Wunderground v.1.15,2013-08-23 13:27:00,
2013-08-23 08:28:00,70.8,69.6,30.01,ESE,105,1.0,5.0,96,0.00,,,0.00,165,Wunderground v.1.15,2013-08-23 13:28:00,
2013-08-23 08:29:00,70.8,69.6,30.01,ESE,114,0.0,5.0,96,0.00,,,0.00,165,Wunderground v.1.15,2013-08-23 13:29:00,
2013-08-23 08:30:00,70.9,69.7,30.01,ESE,116,1.0,2.0,96,0.00,,,0.00,174,Wunderground v.1.15,2013-08-23 13:30:00,
2013-08-23 08:32:00,71.0,69.8,30.01,ESE,111,2.0,3.0,96,0.00,,,0.00,171,Wunderground v.1.15,2013-08-23 13:32:00,
2013-08-23 08:33:00,71.0,69.8,30.01,ESE,111,0.0,3.0,96,0.00,,,0.00,213,Wunderground v.1.15,2013-08-23 13:33:00,
2013-08-23 08:34:00,71.0,69.8,30.01,ESE,110,1.0,4.0,96,0.00,,,0.00,213,Wunderground v.1.15,2013-08-23 13:34:00,
2013-08-23 08:36:00,71.2,70.0,30.01,ESE,111,0.0,4.0,96,0.00,,,0.00,197,Wunderground v.1.15,2013-08-23 13:36:00,
2013-08-23 08:37:00,71.3,70.1,30.01,ESE,103,1.0,4.0,96,0.00,,,0.00,213,Wunderground v.1.15,2013-08-23 13:37:00,
2013-08-23 08:38:00,71.3,69.8,30.01,ESE,105,1.0,4.0,95,0.00,,,0.00,237,Wunderground v.1.15,2013-08-23 13:38:00,
2013-08-23 08:39:00,71.3,70.1,30.01,ESE,107,1.0,4.0,96,0.00,,,0.00,237,Wunderground v.1.15,2013-08-23 13:39:00,
2013-08-23 08:41:00,71.3,69.8,30.01,ESE,109,2.0,2.0,95,0.00,,,0.00,213,Wunderground v.1.15,2013-08-23 13:41:00,
2013-08-23 08:42:00,71.4,69.9,30.01,SE,128,1.0,2.0,95,0.00,,,0.00,236,Wunderground v.1.15,2013-08-23 13:42:00,
2013-08-23 08:43:00,71.5,70.3,30.01,SE,128,0.0,2.0,96,0.00,,,0.00,236,Wunderground v.1.15,2013-08-23 13:43:00,
2013-08-23 08:45:00,71.7,70.5,30.01,East,99,2.0,3.0,96,0.00,,,0.00,181,Wunderground v.1.15,2013-08-23 13:45:00,
2013-08-23 08:46:00,71.7,70.5,30.01,ESE,116,1.0,3.0,96,0.00,,,0.00,255,Wunderground v.1.15,2013-08-23 13:46:00,
2013-08-23 08:47:00,71.9,70.7,30.01,ESE,116,0.0,3.0,96,0.00,,,0.00,181,Wunderground v.1.15,2013-08-23 13:47:00,
2013-08-23 08:48:00,72.0,70.8,30.01,ESE,116,0.0,3.0,96,0.00,,,0.00,211,Wunderground v.1.15,2013-08-23 13:48:00,
2013-08-23 08:49:00,72.0,70.5,30.01,ESE,117,1.0,3.0,95,0.00,,,0.00,204,Wunderground v.1.15,2013-08-23 13:49:00,
2013-08-23 08:50:00,72.0,70.5,30.01,ESE,116,1.0,2.0,95,0.00,,,0.00,193,Wunderground v.1.15,2013-08-23 13:50:00,
2013-08-23 08:51:00,72.0,70.5,30.01,ESE,117,2.0,2.0,95,0.00,,,0.00,209,Wunderground v.1.15,2013-08-23 13:51:00,
2013-08-23 08:52:00,72.1,70.6,30.01,ESE,120,1.0,3.0,95,0.00,,,0.00,230,Wunderground v.1.15,2013-08-23 13:52:00,
2013-08-23 08:54:00,72.2,70.7,30.01,ESE,123,1.0,4.0,95,0.00,,,0.00,202,Wunderground v.1.15,2013-08-23 13:54:00,
2013-08-23 08:56:00,72.4,70.9,30.01,SE,127,2.0,4.0,95,0.00,,,0.00,214,Wunderground v.1.15,2013-08-23 13:56:00,
2013-08-23 08:57:00,72.5,71.0,30.01,ESE,123,4.0,4.0,95,0.00,,,0.00,264,Wunderground v.1.15,2013-08-23 13:57:00,
2013-08-23 09:00:00,72.6,71.1,30.01,ESE,111,7.0,7.0,95,0.00,,,0.00,244,Wunderground v.1.15,2013-08-23 14:00:00,
2013-08-23 09:01:00,72.7,70.9,30.01,ESE,107,2.0,8.0,94,0.00,,,0.00,221,Wunderground v.1.15,2013-08-23 14:01:00,
2013-08-23 09:02:00,72.8,71.0,30.01,ESE,117,1.0,8.0,94,0.00,,,0.00,193,Wunderground v.1.15,2013-08-23 14:02:00,
2013-08-23 09:03:00,72.8,71.0,30.01,ESE,117,1.0,8.0,94,0.00,,,0.00,193,Wunderground v.1.15,2013-08-23 14:03:00,
2013-08-23 09:05:00,72.9,71.1,30.01,SE,132,1.0,8.0,94,0.00,,,0.00,207,Wunderground v.1.15,2013-08-23 14:05:00,
2013-08-23 09:06:00,72.9,71.1,30.01,ESE,113,1.0,8.0,94,0.00,,,0.00,234,Wunderground v.1.15,2013-08-23 14:06:00,
2013-08-23 09:08:00,73.0,71.2,30.01,ESE,105,1.0,8.0,94,0.00,,,0.00,248,Wunderground v.1.15,2013-08-23 14:08:00,
2013-08-23 09:10:00,73.1,71.3,30.01,East,101,0.0,2.0,94,0.00,,,0.00,244,Wunderground v.1.15,2013-08-23 14:10:00,
2013-08-23 09:12:00,73.2,71.4,30.01,ESE,103,3.0,7.0,94,0.00,,,0.00,250,Wunderground v.1.15,2013-08-23 14:12:00,
2013-08-23 09:13:00,73.2,71.4,30.01,ESE,109,2.0,7.0,94,0.00,,,0.00,257,Wunderground v.1.15,2013-08-23 14:13:00,
2013-08-23 09:15:00,73.3,71.5,30.01,ESE,109,2.0,7.0,94,0.00,,,0.00,301,Wunderground v.1.15,2013-08-23 14:15:00,
2013-08-23 09:17:00,73.4,71.3,30.01,ESE,103,5.0,8.0,93,0.00,,,0.00,281,Wunderground v.1.15,2013-08-23 14:17:00,
2013-08-23 09:18:00,73.4,71.6,30.01,SE,128,1.0,8.0,94,0.00,,,0.00,271,Wunderground v.1.15,2013-08-23 14:18:00,
2013-08-23 09:19:00,73.5,71.7,30.01,East,100,2.0,8.0,94,0.00,,,0.00,262,Wunderground v.1.15,2013-08-23 14:19:00,
2013-08-23 09:20:00,73.5,71.7,30.01,East,92,6.0,8.0,94,0.00,,,0.00,279,Wunderground v.1.15,2013-08-23 14:20:00,
2013-08-23 09:22:00,73.6,71.4,30.01,SE,130,2.0,8.0,93,0.00,,,0.00,269,Wunderground v.1.15,2013-08-23 14:22:00,
2013-08-23 09:24:00,73.7,71.5,30.01,SE,143,2.0,8.0,93,0.00,,,0.00,288,Wunderground v.1.15,2013-08-23 14:24:00,
2013-08-23 09:26:00,73.7,71.5,30.01,ESE,119,2.0,8.0,93,0.00,,,0.00,269,Wunderground v.1.15,2013-08-23 14:26:00,
2013-08-23 09:27:00,73.7,71.5,30.01,SE,132,5.0,8.0,93,0.00,,,0.00,269,Wunderground v.1.15,2013-08-23 14:27:00,
2013-08-23 09:29:00,73.7,71.5,30.02,SE,142,2.0,8.0,93,0.00,,,0.00,336,Wunderground v.1.15,2013-08-23 14:29:00,
2013-08-23 09:31:00,73.8,71.6,30.02,SE,125,4.0,10.0,93,0.00,,,0.00,306,Wunderground v.1.15,2013-08-23 14:31:00,
2013-08-23 09:32:00,73.8,71.6,30.02,SE,132,4.0,10.0,93,0.00,,,0.00,374,Wunderground v.1.15,2013-08-23 14:32:00,
2013-08-23 09:33:00,73.9,71.7,30.02,ESE,119,2.0,10.0,93,0.00,,,0.00,292,Wunderground v.1.15,2013-08-23 14:33:00,
2013-08-23 09:34:00,74.0,71.8,30.02,SSE,149,2.0,10.0,93,0.00,,,0.00,301,Wunderground v.1.15,2013-08-23 14:34:00,
2013-08-23 09:36:00,74.1,71.6,30.02,South,170,0.0,10.0,92,0.00,,,0.00,301,Wunderground v.1.15,2013-08-23 14:36:00,
2013-08-23 09:37:00,74.2,72.0,30.02,SE,135,2.0,10.0,93,0.00,,,0.00,336,Wunderground v.1.15,2013-08-23 14:37:00,
2013-08-23 09:38:00,74.3,71.8,30.02,SE,140,0.0,10.0,92,0.00,,,0.00,299,Wunderground v.1.15,2013-08-23 14:38:00,
2013-08-23 09:40:00,74.4,71.9,30.02,SE,134,2.0,3.0,92,0.00,,,0.00,388,Wunderground v.1.15,2013-08-23 14:40:00,
2013-08-23 09:41:00,74.4,71.6,30.02,SSE,150,0.0,6.0,91,0.00,,,0.00,323,Wunderground v.1.15,2013-08-23 14:41:00,
2013-08-23 09:42:00,74.4,71.9,30.02,SE,142,1.0,6.0,92,0.00,,,0.00,345,Wunderground v.1.15,2013-08-23 14:42:00,
2013-08-23 09:44:00,74.5,72.0,30.02,ESE,115,2.0,6.0,92,0.00,,,0.00,434,Wunderground v.1.15,2013-08-23 14:44:00,
2013-08-23 09:45:00,74.6,71.8,30.02,SE,132,3.0,6.0,91,0.00,,,0.00,434,Wunderground v.1.15,2013-08-23 14:45:00,
2013-08-23 09:46:00,74.6,71.8,30.02,ESE,120,1.0,6.0,91,0.00,,,0.00,343,Wunderground v.1.15,2013-08-23 14:46:00,
2013-08-23 09:47:00,74.6,71.8,30.02,ESE,107,3.0,6.0,91,0.00,,,0.00,322,Wunderground v.1.15,2013-08-23 14:47:00,
2013-08-23 09:49:00,74.7,71.9,30.02,SSE,151,2.0,6.0,91,0.00,,,0.00,374,Wunderground v.1.15,2013-08-23 14:49:00,
2013-08-23 09:50:00,74.8,72.0,30.02,SSE,158,1.0,2.0,91,0.00,,,0.00,378,Wunderground v.1.15,2013-08-23 14:50:00,
2013-08-23 09:51:00,74.9,72.1,30.02,SSE,155,3.0,3.0,91,0.00,,,0.00,292,Wunderground v.1.15,2013-08-23 14:51:00,
2013-08-23 09:53:00,74.8,72.0,30.02,SSE,155,2.0,4.0,91,0.00,,,0.00,350,Wunderground v.1.15,2013-08-23 14:53:00,
2013-08-23 09:54:00,74.9,72.1,30.02,SSE,155,3.0,4.0,91,0.00,,,0.00,371,Wunderground v.1.15,2013-08-23 14:54:00,
2013-08-23 09:55:00,74.9,72.1,30.02,SSE,152,2.0,4.0,91,0.00,,,0.00,311,Wunderground v.1.15,2013-08-23 14:55:00,
2013-08-23 09:56:00,75.1,72.3,30.02,SE,144,3.0,4.0,91,0.00,,,0.00,311,Wunderground v.1.15,2013-08-23 14:56:00,
2013-08-23 09:57:00,75.1,72.3,30.02,SE,135,1.0,4.0,91,0.00,,,0.00,452,Wunderground v.1.15,2013-08-23 14:57:00,
2013-08-23 09:59:00,75.5,72.7,30.02,SE,142,7.0,7.0,91,0.00,,,0.00,508,Wunderground v.1.15,2013-08-23 14:59:00,
2013-08-23 10:01:00,75.5,72.0,30.02,SSE,148,1.0,7.0,89,0.00,,,0.00,374,Wunderground v.1.15,2013-08-23 15:01:00,
2013-08-23 10:03:00,75.4,71.9,30.02,SE,144,4.0,7.0,89,0.00,,,0.00,313,Wunderground v.1.15,2013-08-23 15:03:00,
2013-08-23 10:04:00,75.3,71.8,30.02,ESE,122,1.0,9.0,89,0.00,,,0.00,313,Wunderground v.1.15,2013-08-23 15:04:00,
2013-08-23 10:06:00,75.6,72.5,30.02,ESE,107,2.0,9.0,90,0.00,,,0.00,559,Wunderground v.1.15,2013-08-23 15:06:00,
2013-08-23 10:08:00,75.8,72.3,30.02,SE,129,2.0,9.0,89,0.00,,,0.00,381,Wunderground v.1.15,2013-08-23 15:08:00,
2013-08-23 10:09:00,75.9,72.4,30.02,SE,131,6.0,9.0,89,0.00,,,0.00,410,Wunderground v.1.15,2013-08-23 15:09:00,
2013-08-23 10:10:00,75.8,72.3,30.02,East,94,6.0,6.0,89,0.00,,,0.00,339,Wunderground v.1.15,2013-08-23 15:10:00,
2013-08-23 10:11:00,75.6,72.1,30.02,ESE,102,4.0,6.0,89,0.00,,,0.00,339,Wunderground v.1.15,2013-08-23 15:11:00,
2013-08-23 10:13:00,75.7,72.2,30.02,SE,130,1.0,6.0,89,0.00,,,0.00,339,Wunderground v.1.15,2013-08-23 15:13:00,
2013-08-23 10:14:00,75.8,72.3,30.02,East,101,1.0,7.0,89,0.00,,,0.00,657,Wunderground v.1.15,2013-08-23 15:14:00,
2013-08-23 10:15:00,75.8,72.3,30.02,ESE,102,1.0,7.0,89,0.00,,,0.00,657,Wunderground v.1.15,2013-08-23 15:15:00,
2013-08-23 10:16:00,76.0,72.2,30.02,ESE,117,1.0,9.0,88,0.00,,,0.00,591,Wunderground v.1.15,2013-08-23 15:16:00,
2013-08-23 10:17:00,76.0,72.2,30.02,ESE,119,1.0,9.0,88,0.00,,,0.00,591,Wunderground v.1.15,2013-08-23 15:17:00,
2013-08-23 10:18:00,76.1,72.3,30.02,East,94,7.0,9.0,88,0.00,,,0.00,591,Wunderground v.1.15,2013-08-23 15:18:00,
2013-08-23 10:20:00,76.3,72.5,30.02,SE,124,3.0,4.0,88,0.00,,,0.00,621,Wunderground v.1.15,2013-08-23 15:20:00,
2013-08-23 10:21:00,76.2,72.4,30.02,ESE,121,3.0,8.0,88,0.00,,,0.00,615,Wunderground v.1.15,2013-08-23 15:21:00,
2013-08-23 10:22:00,76.2,72.4,30.02,ESE,114,2.0,8.0,88,0.00,,,0.00,615,Wunderground v.1.15,2013-08-23 15:22:00,
2013-08-23 10:24:00,76.0,72.2,30.02,SE,130,2.0,8.0,88,0.00,,,0.00,555,Wunderground v.1.15,2013-08-23 15:24:00,
2013-08-23 10:25:00,76.0,72.5,30.02,East,101,3.0,8.0,89,0.00,,,0.00,598,Wunderground v.1.15,2013-08-23 15:25:00,
2013-08-23 10:27:00,76.1,72.3,30.02,SE,129,2.0,8.0,88,0.00,,,0.00,598,Wunderground v.1.15,2013-08-23 15:27:00,
2013-08-23 10:29:00,76.6,73.1,30.01,ESE,115,2.0,8.0,89,0.00,,,0.00,369,Wunderground v.1.15,2013-08-23 15:29:00,
2013-08-23 10:30:00,76.7,72.9,30.01,SE,128,2.0,3.0,88,0.00,,,0.00,369,Wunderground v.1.15,2013-08-23 15:30:00,
2013-08-23 10:32:00,77.0,72.8,30.02,SE,134,2.0,3.0,87,0.00,,,0.00,302,Wunderground v.1.15,2013-08-23 15:32:00,
2013-08-23 10:33:00,77.0,72.8,30.01,SE,124,0.0,3.0,87,0.00,,,0.00,302,Wunderground v.1.15,2013-08-23 15:33:00,
2013-08-23 10:34:00,77.2,73.0,30.02,SE,143,1.0,6.0,87,0.00,,,0.00,496,Wunderground v.1.15,2013-08-23 15:34:00,
2013-08-23 10:35:00,77.2,73.0,30.02,East,101,2.0,6.0,87,0.00,,,0.00,619,Wunderground v.1.15,2013-08-23 15:35:00,
2013-08-23 10:37:00,77.4,72.9,30.02,ESE,116,2.0,8.0,86,0.00,,,0.00,619,Wunderground v.1.15,2013-08-23 15:37:00,
2013-08-23 10:38:00,77.4,72.9,30.02,ESE,121,1.0,8.0,86,0.00,,,0.00,619,Wunderground v.1.15,2013-08-23 15:38:00,
2013-08-23 10:39:00,77.4,72.9,30.02,SE,140,1.0,8.0,86,0.00,,,0.00,686,Wunderground v.1.15,2013-08-23 15:39:00,
2013-08-23 10:40:00,77.5,73.3,30.02,SSE,149,4.0,4.0,87,0.00,,,0.00,686,Wunderground v.1.15,2013-08-23 15:40:00,
2013-08-23 10:41:00,77.6,73.4,30.02,South,169,2.0,4.0,87,0.00,,,0.00,686,Wunderground v.1.15,2013-08-23 15:41:00,
2013-08-23 10:43:00,78.0,73.1,30.02,SE,132,2.0,6.0,85,0.00,,,0.00,686,Wunderground v.1.15,2013-08-23 15:43:00,
2013-08-23 10:45:00,77.8,72.9,30.02,ESE,115,2.0,9.0,85,0.00,,,0.00,675,Wunderground v.1.15,2013-08-23 15:45:00,
2013-08-23 10:46:00,77.7,72.8,30.02,SE,142,2.0,9.0,85,0.00,,,0.00,633,Wunderground v.1.15,2013-08-23 15:46:00,
2013-08-23 10:48:00,77.9,73.0,30.02,East,93,2.0,9.0,85,0.00,,,0.00,647,Wunderground v.1.15,2013-08-23 15:48:00,
2013-08-23 10:50:00,78.2,74.0,30.02,SSE,149,1.0,4.0,87,0.00,,,0.00,656,Wunderground v.1.15,2013-08-23 15:50:00,
2013-08-23 10:51:00,78.3,73.4,30.02,SE,130,1.0,5.0,85,0.00,,,0.00,605,Wunderground v.1.15,2013-08-23 15:51:00,
2013-08-23 10:53:00,78.5,73.6,30.02,SE,138,1.0,6.0,85,0.00,,,0.00,684,Wunderground v.1.15,2013-08-23 15:53:00,
2013-08-23 10:54:00,78.6,73.4,30.02,SSE,155,1.0,6.0,84,0.00,,,0.00,684,Wunderground v.1.15,2013-08-23 15:54:00,
2013-08-23 10:55:00,78.6,73.4,30.02,ESE,117,2.0,6.0,84,0.00,,,0.00,729,Wunderground v.1.15,2013-08-23 15:55:00,
2013-08-23 10:56:00,78.9,74.0,30.02,East,93,2.0,6.0,85,0.00,,,0.00,703,Wunderground v.1.15,2013-08-23 15:56:00,
2013-08-23 10:58:00,79.0,73.4,30.02,ESE,105,2.0,7.0,83,0.00,,,0.00,682,Wunderground v.1.15,2013-08-23 15:58:00,
2013-08-23 10:59:00,79.1,73.8,30.02,ESE,121,3.0,7.0,84,0.00,,,0.00,707,Wunderground v.1.15,2013-08-23 15:59:00,
2013-08-23 11:00:00,79.2,73.6,30.01,ESE,112,7.0,8.0,83,0.00,,,0.00,696,Wunderground v.1.15,2013-08-23 16:00:00,
2013-08-23 11:02:00,79.2,73.6,30.01,ESE,111,3.0,8.0,83,0.00,,,0.00,687,Wunderground v.1.15,2013-08-23 16:02:00,
2013-08-23 11:03:00,79.3,73.7,30.01,SSE,155,2.0,8.0,83,0.00,,,0.00,694,Wunderground v.1.15,2013-08-23 16:03:00,
2013-08-23 11:04:00,79.4,73.8,30.01,SSE,161,2.0,8.0,83,0.00,,,0.00,705,Wunderground v.1.15,2013-08-23 16:04:00,
2013-08-23 11:05:00,79.3,73.3,30.01,SE,126,1.0,8.0,82,0.00,,,0.00,705,Wunderground v.1.15,2013-08-23 16:05:00,
2013-08-23 11:07:00,79.4,73.8,30.01,East,88,2.0,8.0,83,0.00,,,0.00,647,Wunderground v.1.15,2013-08-23 16:07:00,
2013-08-23 11:08:00,79.5,73.9,30.01,ESE,117,1.0,8.0,83,0.00,,,0.00,647,Wunderground v.1.15,2013-08-23 16:08:00,
2013-08-23 11:09:00,79.5,73.9,30.01,ESE,121,5.0,8.0,83,0.00,,,0.00,766,Wunderground v.1.15,2013-08-23 16:09:00,
2013-08-23 11:10:00,79.5,73.5,30.01,SSE,159,3.0,5.0,82,0.00,,,0.00,742,Wunderground v.1.15,2013-08-23 16:10:00,
2013-08-23 11:12:00,79.5,73.9,30.01,SE,129,4.0,10.0,83,0.00,,,0.00,791,Wunderground v.1.15,2013-08-23 16:12:00,
2013-08-23 11:13:00,79.6,74.0,30.01,SSE,153,1.0,10.0,83,0.00,,,0.00,791,Wunderground v.1.15,2013-08-23 16:13:00,
2013-08-23 11:15:00,80.0,74.4,30.01,SSE,163,2.0,10.0,83,0.00,,,0.00,791,Wunderground v.1.15,2013-08-23 16:15:00,
2013-08-23 11:17:00,79.8,73.8,30.01,SE,127,2.0,10.0,82,0.00,,,0.00,341,Wunderground v.1.15,2013-08-23 16:17:00,
2013-08-23 11:19:00,79.6,73.6,30.01,SE,144,2.0,10.0,82,0.00,,,0.00,766,Wunderground v.1.15,2013-08-23 16:19:00,
2013-08-23 11:20:00,79.6,73.6,30.01,SE,131,1.0,3.0,82,0.00,,,0.00,766,Wunderground v.1.15,2013-08-23 16:20:00,
2013-08-23 11:22:00,79.8,74.2,30.01,ESE,103,4.0,9.0,83,0.00,,,0.00,766,Wunderground v.1.15,2013-08-23 16:22:00,
2013-08-23 11:25:00,80.1,74.5,30.01,East,97,1.0,9.0,83,0.00,,,0.00,812,Wunderground v.1.15,2013-08-23 16:25:00,
2013-08-23 11:26:00,80.3,73.6,30.01,ESE,117,2.0,9.0,80,0.00,,,0.00,812,Wunderground v.1.15,2013-08-23 16:26:00,
2013-08-23 11:27:00,80.2,73.8,30.01,East,101,7.0,9.0,81,0.00,,,0.00,812,Wunderground v.1.15,2013-08-23 16:27:00,
2013-08-23 11:28:00,80.2,73.8,30.01,ESE,118,5.0,9.0,81,0.00,,,0.00,812,Wunderground v.1.15,2013-08-23 16:28:00,
2013-08-23 11:30:00,79.8,73.4,30.01,East,88,3.0,4.0,81,0.00,,,0.00,397,Wunderground v.1.15,2013-08-23 16:30:00,
2013-08-23 11:31:00,79.7,73.7,30.01,SSE,163,3.0,4.0,82,0.00,,,0.00,397,Wunderground v.1.15,2013-08-23 16:31:00,
2013-08-23 11:33:00,80.0,74.4,30.01,East,85,3.0,5.0,83,0.00,,,0.00,870,Wunderground v.1.15,2013-08-23 16:33:00,
2013-08-23 11:35:00,80.3,73.9,30.01,SE,143,5.0,7.0,81,0.00,,,0.00,793,Wunderground v.1.15,2013-08-23 16:35:00,
2013-08-23 11:36:00,80.4,74.0,30.01,SE,128,0.0,8.0,81,0.00,,,0.00,793,Wunderground v.1.15,2013-08-23 16:36:00,
2013-08-23 11:38:00,80.4,74.0,30.01,SE,140,3.0,8.0,81,0.00,,,0.00,793,Wunderground v.1.15,2013-08-23 16:38:00,
2013-08-23 11:40:00,80.2,73.8,30.01,SE,129,1.0,8.0,81,0.00,,,0.00,390,Wunderground v.1.15,2013-08-23 16:40:00,
2013-08-23 11:41:00,80.2,73.8,30.01,SE,142,6.0,8.0,81,0.00,,,0.00,390,Wunderground v.1.15,2013-08-23 16:41:00,
2013-08-23 11:43:00,80.3,74.3,30.01,SE,137,2.0,8.0,82,0.00,,,0.00,390,Wunderground v.1.15,2013-08-23 16:43:00,
2013-08-23 11:45:00,80.4,74.0,30.01,SE,126,2.0,10.0,81,0.00,,,0.00,439,Wunderground v.1.15,2013-08-23 16:45:00,
2013-08-23 11:46:00,80.5,74.1,30.01,SE,132,4.0,10.0,81,0.00,,,0.00,439,Wunderground v.1.15,2013-08-23 16:46:00,
2013-08-23 11:47:00,80.6,74.6,30.01,South,176,4.0,10.0,82,0.00,,,0.00,439,Wunderground v.1.15,2013-08-23 16:47:00,
2013-08-23 11:48:00,80.9,74.1,30.01,ESE,119,2.0,10.0,80,0.00,,,0.00,828,Wunderground v.1.15,2013-08-23 16:48:00,
2013-08-23 11:50:00,81.2,74.4,30.01,SE,127,2.0,6.0,80,0.00,,,0.00,784,Wunderground v.1.15,2013-08-23 16:50:00,
2013-08-23 11:51:00,81.2,74.1,30.00,SE,134,8.0,8.0,79,0.00,,,0.00,784,Wunderground v.1.15,2013-08-23 16:51:00,
2013-08-23 11:52:00,81.1,74.0,30.01,SE,138,4.0,8.0,79,0.00,,,0.00,795,Wunderground v.1.15,2013-08-23 16:52:00,
2013-08-23 11:53:00,81.0,73.9,30.01,SSE,155,3.0,8.0,79,0.00,,,0.00,795,Wunderground v.1.15,2013-08-23 16:53:00,
2013-08-23 11:55:00,81.0,74.6,30.00,SSE,164,8.0,9.0,81,0.00,,,0.00,838,Wunderground v.1.15,2013-08-23 16:55:00,
2013-08-23 11:56:00,81.1,74.3,30.00,SE,145,6.0,9.0,80,0.00,,,0.00,828,Wunderground v.1.15,2013-08-23 16:56:00,
2013-08-23 11:57:00,81.1,74.0,30.00,East,95,5.0,9.0,79,0.00,,,0.00,828,Wunderground v.1.15,2013-08-23 16:57:00,
2013-08-23 11:58:00,81.2,74.4,30.00,ESE,118,11.0,11.0,80,0.00,,,0.00,828,Wunderground v.1.15,2013-08-23 16:58:00,
2013-08-23 12:00:00,81.3,74.2,30.00,SE,135,5.0,5.0,79,0.00,,,0.00,854,Wunderground v.1.15,2013-08-23 17:00:00,
2013-08-23 12:01:00,81.5,74.4,30.00,ESE,123,7.0,9.0,79,0.00,,,0.00,854,Wunderground v.1.15,2013-08-23 17:01:00,
2013-08-23 12:03:00,81.3,73.8,30.01,SE,130,6.0,10.0,78,0.00,,,0.00,854,Wunderground v.1.15,2013-08-23 17:03:00,
2013-08-23 12:05:00,80.7,73.2,30.01,ESE,110,5.0,10.0,78,0.00,,,0.00,438,Wunderground v.1.15,2013-08-23 17:05:00,
2013-08-23 12:06:00,80.5,73.8,30.01,ESE,114,1.0,10.0,80,0.00,,,0.00,438,Wunderground v.1.15,2013-08-23 17:06:00,
2013-08-23 12:08:00,80.5,73.8,30.00,ESE,114,4.0,10.0,80,0.00,,,0.00,513,Wunderground v.1.15,2013-08-23 17:08:00,
2013-08-23 12:09:00,80.5,73.8,30.00,SE,144,5.0,10.0,80,0.00,,,0.00,513,Wunderground v.1.15,2013-08-23 17:09:00,
2013-08-23 12:10:00,80.4,73.7,30.00,SE,142,4.0,8.0,80,0.00,,,0.00,371,Wunderground v.1.15,2013-08-23 17:10:00,
2013-08-23 12:11:00,80.3,73.6,30.00,SE,139,6.0,8.0,80,0.00,,,0.00,371,Wunderground v.1.15,2013-08-23 17:11:00,
2013-08-23 12:14:00,80.5,74.1,30.00,SSE,148,1.0,8.0,81,0.00,,,0.00,895,Wunderground v.1.15,2013-08-23 17:14:00,
2013-08-23 12:15:00,80.4,73.3,30.00,SSE,159,1.0,11.0,79,0.00,,,0.00,475,Wunderground v.1.15,2013-08-23 17:15:00,
2013-08-23 12:16:00,80.5,73.8,30.00,SE,132,6.0,11.0,80,0.00,,,0.00,475,Wunderground v.1.15,2013-08-23 17:16:00,
2013-08-23 12:19:00,80.5,73.8,30.00,SSE,161,1.0,11.0,80,0.00,,,0.00,490,Wunderground v.1.15,2013-08-23 17:19:00,
2013-08-23 12:20:00,80.7,74.3,30.00,SSE,155,2.0,5.0,81,0.00,,,0.00,490,Wunderground v.1.15,2013-08-23 17:20:00,
2013-08-23 12:21:00,80.7,74.3,30.00,SSE,168,3.0,5.0,81,0.00,,,0.00,353,Wunderground v.1.15,2013-08-23 17:21:00,
2013-08-23 12:22:00,80.7,74.3,30.00,SE,136,5.0,5.0,81,0.00,,,0.00,353,Wunderground v.1.15,2013-08-23 17:22:00,
2013-08-23 12:24:00,81.2,74.4,30.00,South,175,2.0,5.0,80,0.00,,,0.00,988,Wunderground v.1.15,2013-08-23 17:24:00,
2013-08-23 12:25:00,81.5,74.7,30.00,SSE,150,5.0,8.0,80,0.00,,,0.00,984,Wunderground v.1.15,2013-08-23 17:25:00,
2013-08-23 12:27:00,81.5,74.4,30.00,SSE,148,2.0,8.0,79,0.00,,,0.00,388,Wunderground v.1.15,2013-08-23 17:27:00,
2013-08-23 12:29:00,81.1,74.0,30.00,ESE,106,3.0,8.0,79,0.00,,,0.00,478,Wunderground v.1.15,2013-08-23 17:29:00,
2013-08-23 12:31:00,80.9,74.1,30.00,East,98,7.0,8.0,80,0.00,,,0.00,902,Wunderground v.1.15,2013-08-23 17:31:00,
2013-08-23 12:32:00,81.0,74.2,30.00,ESE,116,5.0,9.0,80,0.00,,,0.00,969,Wunderground v.1.15,2013-08-23 17:32:00,
2013-08-23 12:34:00,81.1,73.6,30.00,SE,144,3.0,9.0,78,0.00,,,0.00,969,Wunderground v.1.15,2013-08-23 17:34:00,
2013-08-23 12:37:00,80.9,73.8,30.00,East,98,7.0,9.0,79,0.00,,,0.00,408,Wunderground v.1.15,2013-08-23 17:37:00,
2013-08-23 12:38:00,80.8,73.7,30.00,ESE,109,4.0,9.0,79,0.00,,,0.00,408,Wunderground v.1.15,2013-08-23 17:38:00,
2013-08-23 12:39:00,80.9,73.8,29.99,East,90,7.0,9.0,79,0.00,,,0.00,735,Wunderground v.1.15,2013-08-23 17:39:00,
2013-08-23 12:42:00,81.1,74.0,29.99,East,94,2.0,6.0,79,0.00,,,0.00,315,Wunderground v.1.15,2013-08-23 17:42:00,
2013-08-23 12:43:00,81.1,74.0,29.99,ESE,119,1.0,10.0,79,0.00,,,0.00,343,Wunderground v.1.15,2013-08-23 17:43:00,
2013-08-23 12:44:00,80.8,73.7,29.99,SE,139,5.0,10.0,79,0.00,,,0.00,445,Wunderground v.1.15,2013-08-23 17:44:00,
2013-08-23 12:45:00,80.8,74.0,29.99,ESE,116,3.0,10.0,80,0.00,,,0.00,501,Wunderground v.1.15,2013-08-23 17:45:00,
2013-08-23 12:47:00,81.1,74.3,29.99,East,98,2.0,10.0,80,0.00,,,0.00,524,Wunderground v.1.15,2013-08-23 17:47:00,
2013-08-23 12:48:00,81.2,74.4,29.99,East,88,7.0,10.0,80,0.00,,,0.00,944,Wunderground v.1.15,2013-08-23 17:48:00,
2013-08-23 12:49:00,81.6,74.5,29.99,East,94,9.0,10.0,79,0.00,,,0.00,390,Wunderground v.1.15,2013-08-23 17:49:00,
2013-08-23 12:50:00,81.6,74.1,29.99,East,90,7.0,10.0,78,0.00,,,0.00,418,Wunderground v.1.15,2013-08-23 17:50:00,
2013-08-23 12:53:00,81.7,74.2,29.99,East,89,1.0,10.0,78,0.00,,,0.00,995,Wunderground v.1.15,2013-08-23 17:53:00,
2013-08-23 12:55:00,82.0,74.8,29.99,East,98,6.0,10.0,79,0.00,,,0.00,990,Wunderground v.1.15,2013-08-23 17:55:00,
2013-08-23 12:56:00,82.1,74.2,29.99,East,96,2.0,10.0,77,0.00,,,0.00,536,Wunderground v.1.15,2013-08-23 17:56:00,
2013-08-23 12:58:00,82.3,74.7,29.99,SE,135,5.0,10.0,78,0.00,,,0.00,461,Wunderground v.1.15,2013-08-23 17:58:00,
2013-08-23 13:00:00,82.3,74.4,29.99,ESE,119,1.0,4.0,77,0.00,,,0.00,461,Wunderground v.1.15,2013-08-23 18:00:00,
2013-08-23 13:01:00,82.4,74.5,29.99,ESE,116,9.0,9.0,77,0.00,,,0.00,461,Wunderground v.1.15,2013-08-23 18:01:00,
2013-08-23 13:03:00,82.8,75.2,29.99,ESE,120,9.0,9.0,78,0.00,,,0.00,930,Wunderground v.1.15,2013-08-23 18:03:00,
2013-08-23 13:05:00,82.9,74.9,29.99,ESE,115,4.0,9.0,77,0.00,,,0.00,921,Wunderground v.1.15,2013-08-23 18:05:00,
2013-08-23 13:06:00,82.7,74.0,29.99,ESE,103,4.0,9.0,75,0.00,,,0.00,921,Wunderground v.1.15,2013-08-23 18:06:00,
2013-08-23 13:08:00,82.6,74.7,29.99,SE,128,2.0,9.0,77,0.00,,,0.00,837,Wunderground v.1.15,2013-08-23 18:08:00,
2013-08-23 13:09:00,82.6,74.3,29.99,ESE,115,2.0,9.0,76,0.00,,,0.00,837,Wunderground v.1.15,2013-08-23 18:09:00,
2013-08-23 13:10:00,82.6,74.7,29.99,East,98,2.0,4.0,77,0.00,,,0.00,916,Wunderground v.1.15,2013-08-23 18:10:00,
2013-08-23 13:11:00,83.0,75.4,29.98,SE,126,2.0,7.0,78,0.00,,,0.00,895,Wunderground v.1.15,2013-08-23 18:11:00,
2013-08-23 13:14:00,83.5,75.5,29.98,SE,140,2.0,7.0,77,0.00,,,0.00,926,Wunderground v.1.15,2013-08-23 18:14:00,
2013-08-23 13:15:00,83.8,75.8,29.98,ESE,121,1.0,7.0,77,0.00,,,0.00,900,Wunderground v.1.15,2013-08-23 18:15:00,
2013-08-23 13:17:00,84.0,75.2,29.98,SSE,148,2.0,7.0,75,0.00,,,0.00,900,Wunderground v.1.15,2013-08-23 18:17:00,
2013-08-23 13:19:00,84.1,75.7,29.98,ESE,123,7.0,7.0,76,0.00,,,0.00,900,Wunderground v.1.15,2013-08-23 18:19:00,
2013-08-23 13:21:00,84.1,74.5,29.98,SE,128,7.0,7.0,73,0.00,,,0.00,900,Wunderground v.1.15,2013-08-23 18:21:00,
2013-08-23 13:22:00,84.0,74.8,29.98,SSE,152,7.0,7.0,74,0.00,,,0.00,754,Wunderground v.1.15,2013-08-23 18:22:00,
2013-08-23 13:24:00,83.9,74.3,29.98,SSE,148,2.0,10.0,73,0.00,,,0.00,916,Wunderground v.1.15,2013-08-23 18:24:00,
2013-08-23 13:25:00,83.9,74.3,29.98,ESE,115,7.0,10.0,73,0.00,,,0.00,916,Wunderground v.1.15,2013-08-23 18:25:00,
2013-08-23 13:27:00,84.2,74.2,29.98,SE,124,5.0,10.0,72,0.00,,,0.00,884,Wunderground v.1.15,2013-08-23 18:27:00,
2013-08-23 13:28:00,84.1,74.1,29.98,ESE,117,8.0,12.0,72,0.00,,,0.00,696,Wunderground v.1.15,2013-08-23 18:28:00,
2013-08-23 13:30:00,83.9,74.3,29.98,South,178,3.0,12.0,73,0.00,,,0.00,684,Wunderground v.1.15,2013-08-23 18:30:00,
2013-08-23 13:32:00,83.8,75.0,29.98,ESE,111,1.0,8.0,75,0.00,,,0.00,780,Wunderground v.1.15,2013-08-23 18:32:00,
2013-08-23 13:33:00,84.1,74.1,29.98,SSE,148,4.0,8.0,72,0.00,,,0.00,747,Wunderground v.1.15,2013-08-23 18:33:00,
2013-08-23 13:35:00,84.0,74.0,29.98,SE,126,3.0,8.0,72,0.00,,,0.00,619,Wunderground v.1.15,2013-08-23 18:35:00,
2013-08-23 13:37:00,83.9,74.3,29.98,ESE,111,5.0,10.0,73,0.00,,,0.00,645,Wunderground v.1.15,2013-08-23 18:37:00,
2013-08-23 13:38:00,83.7,74.1,29.98,ESE,121,9.0,10.0,73,0.00,,,0.00,645,Wunderground v.1.15,2013-08-23 18:38:00,
2013-08-23 13:40:00,83.5,74.3,29.98,East,94,2.0,4.0,74,0.00,,,0.00,838,Wunderground v.1.15,2013-08-23 18:40:00,
2013-08-23 13:41:00,83.4,74.2,29.98,ESE,104,3.0,5.0,74,0.00,,,0.00,838,Wunderground v.1.15,2013-08-23 18:41:00,
2013-08-23 13:42:00,83.4,74.2,29.98,East,98,5.0,9.0,74,0.00,,,0.00,838,Wunderground v.1.15,2013-08-23 18:42:00,
2013-08-23 13:43:00,83.4,74.2,29.98,SE,132,4.0,9.0,74,0.00,,,0.00,819,Wunderground v.1.15,2013-08-23 18:43:00,
2013-08-23 13:46:00,83.9,74.3,29.98,SE,131,2.0,10.0,73,0.00,,,0.00,840,Wunderground v.1.15,2013-08-23 18:46:00,
2013-08-23 13:47:00,84.1,74.1,29.98,East,101,2.0,10.0,72,0.00,,,0.00,844,Wunderground v.1.15,2013-08-23 18:47:00,
2013-08-23 13:49:00,84.2,74.2,29.98,SE,135,6.0,10.0,72,0.00,,,0.00,844,Wunderground v.1.15,2013-08-23 18:49:00,
2013-08-23 13:51:00,84.4,74.8,29.98,SE,137,7.0,8.0,73,0.00,,,0.00,853,Wunderground v.1.15,2013-08-23 18:51:00,
2013-08-23 13:52:00,84.4,74.4,29.97,East,101,8.0,9.0,72,0.00,,,0.00,853,Wunderground v.1.15,2013-08-23 18:52:00,
2013-08-23 13:54:00,84.6,74.2,29.97,SE,135,4.0,9.0,71,0.00,,,0.00,846,Wunderground v.1.15,2013-08-23 18:54:00,
2013-08-23 13:56:00,84.7,74.3,29.97,SE,134,5.0,9.0,71,0.00,,,0.00,833,Wunderground v.1.15,2013-08-23 18:56:00,
2013-08-23 13:57:00,84.9,74.0,29.97,ESE,106,5.0,9.0,70,0.00,,,0.00,823,Wunderground v.1.15,2013-08-23 18:57:00,
2013-08-23 13:59:00,85.1,74.2,29.97,SE,124,2.0,9.0,70,0.00,,,0.00,802,Wunderground v.1.15,2013-08-23 18:59:00,
2013-08-23 14:01:00,85.3,74.4,29.97,East,94,3.0,12.0,70,0.00,,,0.00,830,Wunderground v.1.15,2013-08-23 19:01:00,
2013-08-23 14:03:00,85.1,73.8,29.97,ESE,118,7.0,12.0,69,0.00,,,0.00,798,Wunderground v.1.15,2013-08-23 19:03:00,
2013-08-23 14:04:00,84.9,73.2,29.97,East,92,3.0,12.0,68,0.00,,,0.00,826,Wunderground v.1.15,2013-08-23 19:04:00,
2013-08-23 14:06:00,84.7,74.3,29.97,SE,124,5.0,12.0,71,0.00,,,0.00,851,Wunderground v.1.15,2013-08-23 19:06:00,
2013-08-23 14:07:00,84.7,73.4,29.97,ESE,117,4.0,12.0,69,0.00,,,0.00,851,Wunderground v.1.15,2013-08-23 19:07:00,
2013-08-23 14:08:00,84.8,74.3,29.97,ESE,117,3.0,12.0,71,0.00,,,0.00,858,Wunderground v.1.15,2013-08-23 19:08:00,
2013-08-23 14:10:00,85.0,74.1,29.97,ESE,105,3.0,6.0,70,0.00,,,0.00,814,Wunderground v.1.15,2013-08-23 19:10:00,
2013-08-23 14:11:00,84.8,74.3,29.97,ENE,78,10.0,10.0,71,0.00,,,0.00,752,Wunderground v.1.15,2013-08-23 19:11:00,
2013-08-23 14:12:00,84.8,74.3,29.97,ESE,102,7.0,10.0,71,0.00,,,0.00,752,Wunderground v.1.15,2013-08-23 19:12:00,
2013-08-23 14:14:00,85.0,74.1,29.97,SE,130,1.0,10.0,70,0.00,,,0.00,856,Wunderground v.1.15,2013-08-23 19:14:00,
2013-08-23 14:15:00,85.3,74.8,29.97,ENE,61,4.0,10.0,71,0.00,,,0.00,856,Wunderground v.1.15,2013-08-23 19:15:00,
2013-08-23 14:17:00,85.9,74.5,29.97,ESE,117,2.0,10.0,69,0.00,,,0.00,860,Wunderground v.1.15,2013-08-23 19:17:00,
2013-08-23 14:18:00,85.9,74.5,29.97,East,94,2.0,10.0,69,0.00,,,0.00,650,Wunderground v.1.15,2013-08-23 19:18:00,
2013-08-23 14:19:00,85.9,74.1,29.97,ESE,107,1.0,10.0,68,0.00,,,0.00,650,Wunderground v.1.15,2013-08-23 19:19:00,
2013-08-23 14:20:00,85.9,74.1,29.96,East,93,3.0,4.0,68,0.00,,,0.00,756,Wunderground v.1.15,2013-08-23 19:20:00,
2013-08-23 14:22:00,85.9,75.0,29.96,SE,146,3.0,9.0,70,0.00,,,0.00,870,Wunderground v.1.15,2013-08-23 19:22:00,
2013-08-23 14:23:00,86.3,74.9,29.96,SE,132,4.0,9.0,69,0.00,,,0.00,865,Wunderground v.1.15,2013-08-23 19:23:00,
2013-08-23 14:25:00,86.3,74.5,29.96,ESE,110,4.0,9.0,68,0.00,,,0.00,867,Wunderground v.1.15,2013-08-23 19:25:00,
2013-08-23 14:26:00,86.4,75.0,29.96,SE,138,6.0,9.0,69,0.00,,,0.00,867,Wunderground v.1.15,2013-08-23 19:26:00,
2013-08-23 14:28:00,86.4,74.1,29.96,SE,132,3.0,9.0,67,0.00,,,0.00,835,Wunderground v.1.15,2013-08-23 19:28:00,
2013-08-23 14:29:00,86.1,74.3,29.96,ESE,105,1.0,9.0,68,0.00,,,0.00,835,Wunderground v.1.15,2013-08-23 19:29:00,
2013-08-23 14:31:00,85.8,74.0,29.96,East,96,2.0,4.0,68,0.00,,,0.00,835,Wunderground v.1.15,2013-08-23 19:31:00,
2013-08-23 14:33:00,85.1,73.3,29.96,East,97,7.0,9.0,68,0.00,,,0.00,311,Wunderground v.1.15,2013-08-23 19:33:00,
2013-08-23 14:34:00,85.0,73.7,29.96,East,92,7.0,9.0,69,0.00,,,0.00,603,Wunderground v.1.15,2013-08-23 19:34:00,
2013-08-23 14:36:00,85.3,74.4,29.96,SE,141,0.0,9.0,70,0.00,,,0.00,844,Wunderground v.1.15,2013-08-23 19:36:00,
2013-08-23 14:38:00,85.8,74.4,29.96,ESE,117,4.0,11.0,69,0.00,,,0.00,861,Wunderground v.1.15,2013-08-23 19:38:00,
2013-08-23 14:39:00,85.8,74.4,29.96,East,90,3.0,11.0,69,0.00,,,0.00,861,Wunderground v.1.15,2013-08-23 19:39:00,
2013-08-23 14:41:00,85.8,73.6,29.96,ESE,105,7.0,8.0,67,0.00,,,0.00,745,Wunderground v.1.15,2013-08-23 19:41:00,
2013-08-23 14:44:00,86.1,74.7,29.96,SE,128,5.0,8.0,69,0.00,,,0.00,807,Wunderground v.1.15,2013-08-23 19:44:00,
2013-08-23 14:45:00,86.3,75.4,29.96,ESE,109,5.0,8.0,70,0.00,,,0.00,803,Wunderground v.1.15,2013-08-23 19:45:00,
2013-08-23 14:47:00,86.2,74.8,29.96,ESE,115,2.0,8.0,69,0.00,,,0.00,747,Wunderground v.1.15,2013-08-23 19:47:00,
2013-08-23 14:49:00,85.8,74.4,29.96,East,100,2.0,8.0,69,0.00,,,0.00,708,Wunderground v.1.15,2013-08-23 19:49:00,
2013-08-23 14:50:00,85.8,74.4,29.96,East,90,2.0,3.0,69,0.00,,,0.00,793,Wunderground v.1.15,2013-08-23 19:50:00,
2013-08-23 14:52:00,86.2,74.4,29.96,ESE,110,2.0,5.0,68,0.00,,,0.00,844,Wunderground v.1.15,2013-08-23 19:52:00,
2013-08-23 14:53:00,86.4,75.0,29.96,ESE,111,3.0,5.0,69,0.00,,,0.00,849,Wunderground v.1.15,2013-08-23 19:53:00,
2013-08-23 14:54:00,86.6,74.3,29.96,SE,125,5.0,7.0,67,0.00,,,0.00,823,Wunderground v.1.15,2013-08-23 19:54:00,
2013-08-23 14:55:00,86.7,74.4,29.96,SSE,150,1.0,7.0,67,0.00,,,0.00,823,Wunderground v.1.15,2013-08-23 19:55:00,
2013-08-23 14:57:00,87.1,74.4,29.96,ESE,117,1.0,8.0,66,0.00,,,0.00,786,Wunderground v.1.15,2013-08-23 19:57:00,
2013-08-23 14:58:00,86.9,74.2,29.96,East,92,2.0,8.0,66,0.00,,,0.00,837,Wunderground v.1.15,2013-08-23 19:58:00,
2013-08-23 15:00:00,87.0,74.7,29.96,SE,136,1.0,3.0,67,0.00,,,0.00,888,Wunderground v.1.15,2013-08-23 20:00:00,
2013-08-23 15:02:00,87.2,74.0,29.96,ESE,115,4.0,9.0,65,0.00,,,0.00,889,Wunderground v.1.15,2013-08-23 20:02:00,
2013-08-23 15:04:00,87.1,73.9,29.95,ESE,117,2.0,9.0,65,0.00,,,0.00,886,Wunderground v.1.15,2013-08-23 20:04:00,
2013-08-23 15:05:00,87.2,74.0,29.95,SE,139,1.0,9.0,65,0.00,,,0.00,868,Wunderground v.1.15,2013-08-23 20:05:00,
2013-08-23 15:07:00,87.4,74.6,29.95,East,100,3.0,9.0,66,0.00,,,0.00,779,Wunderground v.1.15,2013-08-23 20:07:00,
2013-08-23 15:09:00,87.2,74.0,29.95,ESE,108,5.0,9.0,65,0.00,,,0.00,749,Wunderground v.1.15,2013-08-23 20:09:00,
2013-08-23 15:10:00,87.1,73.9,29.95,East,100,8.0,9.0,65,0.00,,,0.00,749,Wunderground v.1.15,2013-08-23 20:10:00,
2013-08-23 15:11:00,87.0,73.8,29.95,ESE,105,3.0,9.0,65,0.00,,,0.00,346,Wunderground v.1.15,2013-08-23 20:11:00,
2013-08-23 15:12:00,86.5,73.8,29.95,ESE,103,5.0,9.0,66,0.00,,,0.00,469,Wunderground v.1.15,2013-08-23 20:12:00,
2013-08-23 15:15:00,86.4,74.6,29.95,SE,134,1.0,9.0,68,0.00,,,0.00,858,Wunderground v.1.15,2013-08-23 20:15:00,
2013-08-23 15:16:00,86.7,74.9,29.95,ESE,121,3.0,9.0,68,0.00,,,0.00,858,Wunderground v.1.15,2013-08-23 20:16:00,
2013-08-23 15:17:00,86.9,74.2,29.95,SE,137,2.0,12.0,66,0.00,,,0.00,663,Wunderground v.1.15,2013-08-23 20:17:00,
2013-08-23 15:20:00,86.6,73.4,29.95,East,94,3.0,7.0,65,0.00,,,0.00,663,Wunderground v.1.15,2013-08-23 20:20:00,
2013-08-23 15:21:00,86.6,73.9,29.95,East,97,2.0,8.0,66,0.00,,,0.00,663,Wunderground v.1.15,2013-08-23 20:21:00,
2013-08-23 15:22:00,86.5,73.3,29.95,East,87,2.0,10.0,65,0.00,,,0.00,283,Wunderground v.1.15,2013-08-23 20:22:00,
2013-08-23 15:25:00,86.1,73.9,29.95,SE,134,3.0,10.0,67,0.00,,,0.00,287,Wunderground v.1.15,2013-08-23 20:25:00,
2013-08-23 15:26:00,86.0,73.8,29.95,SE,146,3.0,10.0,67,0.00,,,0.00,406,Wunderground v.1.15,2013-08-23 20:26:00,
2013-08-23 15:27:00,86.2,74.4,29.95,SE,127,2.0,10.0,68,0.00,,,0.00,406,Wunderground v.1.15,2013-08-23 20:27:00,
2013-08-23 15:30:00,86.4,73.7,29.95,SE,129,1.0,3.0,66,0.00,,,0.00,302,Wunderground v.1.15,2013-08-23 20:30:00,
2013-08-23 15:31:00,86.2,73.5,29.95,ESE,119,1.0,3.0,66,0.00,,,0.00,281,Wunderground v.1.15,2013-08-23 20:31:00,
2013-08-23 15:32:00,86.0,72.9,29.95,SE,142,2.0,3.0,65,0.00,,,0.00,292,Wunderground v.1.15,2013-08-23 20:32:00,
2013-08-23 15:35:00,86.4,74.1,29.94,East,96,2.0,7.0,67,0.00,,,0.00,777,Wunderground v.1.15,2013-08-23 20:35:00,
2013-08-23 15:36:00,86.8,74.5,29.94,ESE,107,8.0,10.0,67,0.00,,,0.00,773,Wunderground v.1.15,2013-08-23 20:36:00,
2013-08-23 15:37:00,86.8,73.6,29.94,East,91,7.0,10.0,65,0.00,,,0.00,777,Wunderground v.1.15,2013-08-23 20:37:00,
2013-08-23 15:40:00,86.8,73.2,29.94,SE,142,4.0,4.0,64,0.00,,,0.00,775,Wunderground v.1.15,2013-08-23 20:40:00,
2013-08-23 15:41:00,86.7,73.5,29.94,ESE,103,9.0,9.0,65,0.00,,,0.00,775,Wunderground v.1.15,2013-08-23 20:41:00,
2013-08-23 15:42:00,86.6,73.4,29.94,ESE,111,7.0,9.0,65,0.00,,,0.00,775,Wunderground v.1.15,2013-08-23 20:42:00,
2013-08-23 15:45:00,86.1,73.4,29.94,ESE,113,2.0,9.0,66,0.00,,,0.00,278,Wunderground v.1.15,2013-08-23 20:45:00,
2013-08-23 15:46:00,86.0,73.3,29.94,ESE,107,2.0,9.0,66,0.00,,,0.00,294,Wunderground v.1.15,2013-08-23 20:46:00,
2013-08-23 15:47:00,85.9,72.8,29.94,East,93,2.0,9.0,65,0.00,,,0.00,642,Wunderground v.1.15,2013-08-23 20:47:00,
2013-08-23 15:48:00,85.9,72.8,29.94,East,95,1.0,9.0,65,0.00,,,0.00,642,Wunderground v.1.15,2013-08-23 20:48:00,
2013-08-23 15:50:00,86.5,73.3,29.94,SE,144,1.0,3.0,65,0.00,,,0.00,561,Wunderground v.1.15,2013-08-23 20:50:00,
2013-08-23 15:51:00,86.5,73.3,29.94,SSE,161,3.0,5.0,65,0.00,,,0.00,561,Wunderground v.1.15,2013-08-23 20:51:00,
2013-08-23 15:52:00,86.5,73.3,29.94,SSE,152,0.0,5.0,65,0.00,,,0.00,529,Wunderground v.1.15,2013-08-23 20:52:00,
2013-08-23 15:53:00,86.6,74.3,29.94,SSE,153,2.0,5.0,67,0.00,,,0.00,580,Wunderground v.1.15,2013-08-23 20:53:00,
2013-08-23 15:55:00,86.8,74.1,29.94,SE,137,2.0,5.0,66,0.00,,,0.00,666,Wunderground v.1.15,2013-08-23 20:55:00,
2013-08-23 15:56:00,86.9,74.2,29.94,SSE,148,5.0,6.0,66,0.00,,,0.00,615,Wunderground v.1.15,2013-08-23 20:56:00,
2013-08-23 15:57:00,87.0,73.8,29.93,ESE,122,2.0,8.0,65,0.00,,,0.00,527,Wunderground v.1.15,2013-08-23 20:57:00,
2013-08-23 15:59:00,87.0,73.8,29.93,SSE,164,2.0,8.0,65,0.00,,,0.00,617,Wunderground v.1.15,2013-08-23 20:59:00,
2013-08-23 16:00:00,87.2,74.5,29.93,SSE,164,2.0,4.0,66,0.00,,,0.00,577,Wunderground v.1.15,2013-08-23 21:00:00,
2013-08-23 16:01:00,87.3,74.1,29.93,SE,143,2.0,7.0,65,0.00,,,0.00,564,Wunderground v.1.15,2013-08-23 21:01:00,
2013-08-23 16:02:00,87.3,73.6,29.93,ESE,116,5.0,7.0,64,0.00,,,0.00,573,Wunderground v.1.15,2013-08-23 21:02:00,
2013-08-23 16:03:00,87.3,73.6,29.93,SE,125,4.0,7.0,64,0.00,,,0.00,573,Wunderground v.1.15,2013-08-23 21:03:00,
2013-08-23 16:04:00,87.2,73.5,29.93,SSE,161,1.0,8.0,64,0.00,,,0.00,534,Wunderground v.1.15,2013-08-23 21:04:00,
2013-08-23 16:05:00,87.1,73.4,29.93,SE,128,8.0,8.0,64,0.00,,,0.00,473,Wunderground v.1.15,2013-08-23 21:05:00,
2013-08-23 16:06:00,87.0,73.8,29.93,ESE,103,1.0,8.0,65,0.00,,,0.00,475,Wunderground v.1.15,2013-08-23 21:06:00,
2013-08-23 16:08:00,87.0,74.3,29.93,East,96,2.0,8.0,66,0.00,,,0.00,436,Wunderground v.1.15,2013-08-23 21:08:00,
2013-08-23 16:09:00,87.0,73.3,29.94,ENE,72,4.0,8.0,64,0.00,,,0.00,436,Wunderground v.1.15,2013-08-23 21:09:00,
2013-08-23 16:11:00,87.0,73.8,29.94,ESE,122,2.0,7.0,65,0.00,,,0.00,589,Wunderground v.1.15,2013-08-23 21:11:00,
2013-08-23 16:12:00,87.0,73.8,29.93,SE,132,2.0,7.0,65,0.00,,,0.00,589,Wunderground v.1.15,2013-08-23 21:12:00,
2013-08-23 16:13:00,87.0,73.3,29.93,ESE,115,3.0,7.0,64,0.00,,,0.00,596,Wunderground v.1.15,2013-08-23 21:13:00,
2013-08-23 16:14:00,87.0,73.3,29.93,SE,125,1.0,7.0,64,0.00,,,0.00,608,Wunderground v.1.15,2013-08-23 21:14:00,
2013-08-23 16:16:00,87.2,73.5,29.93,ESE,102,5.0,7.0,64,0.00,,,0.00,540,Wunderground v.1.15,2013-08-23 21:16:00,
2013-08-23 16:17:00,87.3,73.2,29.94,ESE,119,3.0,8.0,63,0.00,,,0.00,540,Wunderground v.1.15,2013-08-23 21:17:00,
2013-08-23 16:18:00,87.2,73.1,29.93,ESE,104,2.0,8.0,63,0.00,,,0.00,615,Wunderground v.1.15,2013-08-23 21:18:00,
2013-08-23 16:19:00,87.1,73.0,29.93,ESE,104,4.0,8.0,63,0.00,,,0.00,559,Wunderground v.1.15,2013-08-23 21:19:00,
2013-08-23 16:22:00,86.9,72.8,29.93,East,101,3.0,10.0,63,0.00,,,0.00,570,Wunderground v.1.15,2013-08-23 21:22:00,
2013-08-23 16:23:00,86.8,72.7,29.93,SSE,168,0.0,10.0,63,0.00,,,0.00,570,Wunderground v.1.15,2013-08-23 21:23:00,
2013-08-23 16:24:00,87.0,73.3,29.93,SSE,150,2.0,10.0,64,0.00,,,0.00,504,Wunderground v.1.15,2013-08-23 21:24:00,
2013-08-23 16:27:00,87.2,73.5,29.93,SE,130,3.0,10.0,64,0.00,,,0.00,504,Wunderground v.1.15,2013-08-23 21:27:00,
2013-08-23 16:28:00,87.0,72.9,29.93,ESE,108,3.0,10.0,63,0.00,,,0.00,573,Wunderground v.1.15,2013-08-23 21:28:00,
2013-08-23 16:29:00,86.8,73.2,29.93,SE,140,2.0,10.0,64,0.00,,,0.00,540,Wunderground v.1.15,2013-08-23 21:29:00,
2013-08-23 16:32:00,87.0,73.8,29.93,SE,132,3.0,5.0,65,0.00,,,0.00,575,Wunderground v.1.15,2013-08-23 21:32:00,
2013-08-23 16:33:00,87.0,73.8,29.93,South,171,4.0,10.0,65,0.00,,,0.00,568,Wunderground v.1.15,2013-08-23 21:33:00,
2013-08-23 16:34:00,87.0,72.9,29.93,SSE,159,3.0,10.0,63,0.00,,,0.00,582,Wunderground v.1.15,2013-08-23 21:34:00,
2013-08-23 16:38:00,87.2,73.1,29.93,East,101,3.0,11.0,63,0.00,,,0.00,589,Wunderground v.1.15,2013-08-23 21:38:00,
2013-08-23 16:39:00,87.2,73.1,29.93,East,94,5.0,11.0,63,0.00,,,0.00,591,Wunderground v.1.15,2013-08-23 21:39:00,
2013-08-23 16:40:00,87.2,73.1,29.93,East,84,2.0,5.0,63,0.00,,,0.00,531,Wunderground v.1.15,2013-08-23 21:40:00,
2013-08-23 16:43:00,87.3,74.1,29.93,SE,144,3.0,10.0,65,0.00,,,0.00,548,Wunderground v.1.15,2013-08-23 21:43:00,
2013-08-23 16:44:00,87.4,73.3,29.93,SSE,153,3.0,10.0,63,0.00,,,0.00,571,Wunderground v.1.15,2013-08-23 21:44:00,
2013-08-23 16:45:00,87.4,72.3,29.93,SSE,159,2.0,10.0,61,0.00,,,0.00,577,Wunderground v.1.15,2013-08-23 21:45:00,
2013-08-23 16:48:00,87.8,73.6,29.93,SE,146,1.0,10.0,63,0.00,,,0.00,570,Wunderground v.1.15,2013-08-23 21:48:00,
2013-08-23 16:49:00,87.9,73.7,29.93,East,96,2.0,10.0,63,0.00,,,0.00,568,Wunderground v.1.15,2013-08-23 21:49:00,
2013-08-23 16:50:00,87.9,73.3,29.93,ESE,103,4.0,4.0,62,0.00,,,0.00,568,Wunderground v.1.15,2013-08-23 21:50:00,
2013-08-23 16:53:00,87.9,73.3,29.93,ESE,119,8.0,13.0,62,0.00,,,0.00,547,Wunderground v.1.15,2013-08-23 21:53:00,
2013-08-23 16:54:00,87.7,73.1,29.93,ESE,119,3.0,13.0,62,0.00,,,0.00,533,Wunderground v.1.15,2013-08-23 21:54:00,
2013-08-23 16:55:00,87.5,73.3,29.93,SE,132,2.0,13.0,63,0.00,,,0.00,519,Wunderground v.1.15,2013-08-23 21:55:00,
2013-08-23 16:58:00,87.3,73.6,29.93,ESE,123,7.0,13.0,64,0.00,,,0.00,504,Wunderground v.1.15,2013-08-23 21:58:00,
2013-08-23 16:59:00,87.2,73.1,29.93,ESE,117,2.0,13.0,63,0.00,,,0.00,490,Wunderground v.1.15,2013-08-23 21:59:00,
2013-08-23 17:00:00,87.3,73.2,29.93,SSE,161,1.0,5.0,63,0.00,,,0.00,496,Wunderground v.1.15,2013-08-23 22:00:00,
2013-08-23 17:03:00,87.5,73.3,29.93,ESE,103,0.0,6.0,63,0.00,,,0.00,501,Wunderground v.1.15,2013-08-23 22:03:00,
2013-08-23 17:04:00,87.6,73.9,29.93,SE,136,3.0,6.0,64,0.00,,,0.00,497,Wunderground v.1.15,2013-08-23 22:04:00,
2013-08-23 17:05:00,87.6,73.9,29.93,SE,136,1.0,6.0,64,0.00,,,0.00,469,Wunderground v.1.15,2013-08-23 22:05:00,
2013-08-23 17:09:00,87.3,72.7,29.92,ESE,112,3.0,8.0,62,0.00,,,0.00,457,Wunderground v.1.15,2013-08-23 22:09:00,
2013-08-23 17:10:00,87.2,72.6,29.93,SSE,153,1.0,3.0,62,0.00,,,0.00,466,Wunderground v.1.15,2013-08-23 22:10:00,
2013-08-23 17:14:00,87.4,73.3,29.92,ESE,119,3.0,4.0,63,0.00,,,0.00,462,Wunderground v.1.15,2013-08-23 22:14:00,
2013-08-23 17:15:00,87.3,72.7,29.92,ESE,123,5.0,7.0,62,0.00,,,0.00,446,Wunderground v.1.15,2013-08-23 22:15:00,
2013-08-23 17:16:00,87.2,73.1,29.92,ESE,115,8.0,9.0,63,0.00,,,0.00,446,Wunderground v.1.15,2013-08-23 22:16:00,
2013-08-23 17:19:00,87.2,72.6,29.92,South,174,5.0,9.0,62,0.00,,,0.00,427,Wunderground v.1.15,2013-08-23 22:19:00,
2013-08-23 17:20:00,87.2,73.1,29.92,SE,138,2.0,3.0,63,0.00,,,0.00,388,Wunderground v.1.15,2013-08-23 22:20:00,
2013-08-23 17:21:00,87.1,72.5,29.92,SE,144,2.0,3.0,62,0.00,,,0.00,388,Wunderground v.1.15,2013-08-23 22:21:00,
2013-08-23 17:24:00,86.9,72.8,29.93,SE,130,2.0,6.0,63,0.00,,,0.00,369,Wunderground v.1.15,2013-08-23 22:24:00,
2013-08-23 17:26:00,86.9,73.3,29.93,ESE,108,1.0,6.0,64,0.00,,,0.00,383,Wunderground v.1.15,2013-08-23 22:26:00,
2013-08-23 17:29:00,87.0,72.4,29.92,SE,142,1.0,6.0,62,0.00,,,0.00,371,Wunderground v.1.15,2013-08-23 22:29:00,
2013-08-23 17:31:00,87.0,72.4,29.93,SE,127,2.0,5.0,62,0.00,,,0.00,369,Wunderground v.1.15,2013-08-23 22:31:00,
2013-08-23 17:34:00,86.9,71.3,29.93,SE,136,5.0,8.0,60,0.00,,,0.00,357,Wunderground v.1.15,2013-08-23 22:34:00,
2013-08-23 17:36:00,86.9,71.3,29.93,ESE,123,2.0,8.0,60,0.00,,,0.00,345,Wunderground v.1.15,2013-08-23 22:36:00,
2013-08-23 17:37:00,86.8,71.2,29.93,ESE,115,3.0,8.0,60,0.00,,,0.00,345,Wunderground v.1.15,2013-08-23 22:37:00,
2013-08-23 17:39:00,86.7,71.6,29.93,SE,134,4.0,9.0,61,0.00,,,0.00,348,Wunderground v.1.15,2013-08-23 22:39:00,
2013-08-23 17:41:00,86.7,71.6,29.93,ESE,119,3.0,5.0,61,0.00,,,0.00,346,Wunderground v.1.15,2013-08-23 22:41:00,
2013-08-23 17:42:00,86.6,72.0,29.93,SE,125,2.0,7.0,62,0.00,,,0.00,343,Wunderground v.1.15,2013-08-23 22:42:00,
2013-08-23 17:45:00,86.7,72.1,29.93,ESE,109,3.0,7.0,62,0.00,,,0.00,334,Wunderground v.1.15,2013-08-23 22:45:00,
2013-08-23 17:46:00,86.7,72.1,29.93,SSE,151,3.0,7.0,62,0.00,,,0.00,320,Wunderground v.1.15,2013-08-23 22:46:00,
2013-08-23 17:47:00,86.8,72.2,29.93,ESE,109,2.0,7.0,62,0.00,,,0.00,315,Wunderground v.1.15,2013-08-23 22:47:00,
2013-08-23 17:50:00,86.6,71.5,29.93,SE,126,2.0,3.0,61,0.00,,,0.00,309,Wunderground v.1.15,2013-08-23 22:50:00,
2013-08-23 17:51:00,86.6,72.0,29.93,ESE,115,2.0,3.0,62,0.00,,,0.00,297,Wunderground v.1.15,2013-08-23 22:51:00,
2013-08-23 17:52:00,86.6,71.5,29.93,ESE,115,2.0,3.0,61,0.00,,,0.00,299,Wunderground v.1.15,2013-08-23 22:52:00,
2013-08-23 17:55:00,86.5,71.0,29.93,SE,138,2.0,7.0,60,0.00,,,0.00,288,Wunderground v.1.15,2013-08-23 22:55:00,
2013-08-23 17:56:00,86.4,70.9,29.93,East,97,5.0,8.0,60,0.00,,,0.00,285,Wunderground v.1.15,2013-08-23 22:56:00,
2013-08-23 17:57:00,86.3,70.8,29.93,ESE,122,2.0,8.0,60,0.00,,,0.00,272,Wunderground v.1.15,2013-08-23 22:57:00,
2013-08-23 18:01:00,86.1,71.1,29.93,SE,124,1.0,4.0,61,0.00,,,0.00,258,Wunderground v.1.15,2013-08-23 23:01:00,
2013-08-23 18:02:00,86.1,70.6,29.93,SSE,152,3.0,7.0,60,0.00,,,0.00,269,Wunderground v.1.15,2013-08-23 23:02:00,
2013-08-23 18:03:00,86.1,71.1,29.93,SE,134,1.0,7.0,61,0.00,,,0.00,269,Wunderground v.1.15,2013-08-23 23:03:00,
2013-08-23 18:06:00,86.1,71.1,29.93,SE,138,2.0,7.0,61,0.00,,,0.00,278,Wunderground v.1.15,2013-08-23 23:06:00,
2013-08-23 18:07:00,86.1,71.1,29.93,SE,134,3.0,7.0,61,0.00,,,0.00,272,Wunderground v.1.15,2013-08-23 23:07:00,
2013-08-23 18:08:00,86.1,71.1,29.92,SE,136,2.0,7.0,61,0.00,,,0.00,272,Wunderground v.1.15,2013-08-23 23:08:00,
2013-08-23 18:11:00,86.1,71.6,29.93,ESE,107,1.0,5.0,62,0.00,,,0.00,241,Wunderground v.1.15,2013-08-23 23:11:00,
2013-08-23 18:12:00,86.0,71.0,29.93,East,97,2.0,5.0,61,0.00,,,0.00,255,Wunderground v.1.15,2013-08-23 23:12:00,
2013-08-23 18:13:00,86.0,71.0,29.93,East,98,1.0,5.0,61,0.00,,,0.00,255,Wunderground v.1.15,2013-08-23 23:13:00,
2013-08-23 18:16:00,86.0,71.0,29.93,SE,143,5.0,7.0,61,0.00,,,0.00,239,Wunderground v.1.15,2013-08-23 23:16:00,
2013-08-23 18:18:00,85.9,70.9,29.92,ESE,113,4.0,7.0,61,0.00,,,0.00,230,Wunderground v.1.15,2013-08-23 23:18:00,
2013-08-23 18:19:00,85.8,71.3,29.92,ESE,115,2.0,7.0,62,0.00,,,0.00,221,Wunderground v.1.15,2013-08-23 23:19:00,
2013-08-23 18:21:00,85.7,71.7,29.92,ESE,107,2.0,3.0,63,0.00,,,0.00,241,Wunderground v.1.15,2013-08-23 23:21:00,
2013-08-23 18:23:00,85.7,71.7,29.92,East,101,0.0,6.0,63,0.00,,,0.00,232,Wunderground v.1.15,2013-08-23 23:23:00,
2013-08-23 18:24:00,85.7,71.7,29.92,SSE,148,4.0,6.0,63,0.00,,,0.00,232,Wunderground v.1.15,2013-08-23 23:24:00,
2013-08-23 18:27:00,85.7,72.1,29.92,ESE,109,2.0,6.0,64,0.00,,,0.00,214,Wunderground v.1.15,2013-08-23 23:27:00,
2013-08-23 18:29:00,85.7,71.7,29.92,ESE,106,4.0,6.0,63,0.00,,,0.00,213,Wunderground v.1.15,2013-08-23 23:29:00,
2013-08-23 18:32:00,85.6,71.6,29.92,SE,133,0.0,8.0,63,0.00,,,0.00,190,Wunderground v.1.15,2013-08-23 23:32:00,
2013-08-23 18:34:00,85.5,71.5,29.92,ESE,109,3.0,8.0,63,0.00,,,0.00,183,Wunderground v.1.15,2013-08-23 23:34:00,
2013-08-23 18:37:00,85.4,71.4,29.92,ESE,113,4.0,8.0,63,0.00,,,0.00,165,Wunderground v.1.15,2013-08-23 23:37:00,
2013-08-23 18:39:00,85.3,71.7,29.92,ESE,111,2.0,8.0,64,0.00,,,0.00,163,Wunderground v.1.15,2013-08-23 23:39:00,
2013-08-23 18:42:00,85.2,71.6,29.92,ESE,114,0.0,9.0,64,0.00,,,0.00,146,Wunderground v.1.15,2013-08-23 23:42:00,
2013-08-23 18:44:00,85.1,71.5,29.92,SE,132,1.0,9.0,64,0.00,,,0.00,144,Wunderground v.1.15,2013-08-23 23:44:00,
2013-08-23 18:45:00,85.1,71.5,29.92,SE,136,1.0,9.0,64,0.00,,,0.00,141,Wunderground v.1.15,2013-08-23 23:45:00,
2013-08-23 18:47:00,85.0,71.5,29.92,ESE,117,4.0,9.0,64,0.00,,,0.00,135,Wunderground v.1.15,2013-08-23 23:47:00,
2013-08-23 18:48:00,84.9,71.4,29.92,ESE,119,2.0,9.0,64,0.00,,,0.00,132,Wunderground v.1.15,2013-08-23 23:48:00,
2013-08-23 18:49:00,84.9,71.4,29.92,East,89,1.0,9.0,64,0.00,,,0.00,130,Wunderground v.1.15,2013-08-23 23:49:00,
2013-08-23 18:50:00,84.9,71.4,29.92,ESE,111,2.0,4.0,64,0.00,,,0.00,125,Wunderground v.1.15,2013-08-23 23:50:00,
2013-08-23 18:52:00,84.8,71.3,29.92,SE,135,2.0,6.0,64,0.00,,,0.00,113,Wunderground v.1.15,2013-08-23 23:52:00,
2013-08-23 18:53:00,84.7,71.2,29.92,East,99,1.0,6.0,64,0.00,,,0.00,77,Wunderground v.1.15,2013-08-23 23:53:00,
2013-08-23 18:54:00,84.7,71.2,29.92,ESE,121,2.0,6.0,64,0.00,,,0.00,105,Wunderground v.1.15,2013-08-23 23:54:00,
2013-08-23 18:55:00,84.6,71.1,29.92,ESE,121,2.0,6.0,64,0.00,,,0.00,104,Wunderground v.1.15,2013-08-23 23:55:00,
2013-08-23 18:57:00,84.5,71.0,29.92,ESE,110,3.0,6.0,64,0.00,,,0.00,100,Wunderground v.1.15,2013-08-23 23:57:00,
2013-08-23 18:58:00,84.5,71.0,29.92,ESE,120,4.0,6.0,64,0.00,,,0.00,95,Wunderground v.1.15,2013-08-23 23:58:00,
2013-08-23 18:59:00,84.5,71.0,29.92,ESE,112,1.0,6.0,64,0.00,,,0.00,95,Wunderground v.1.15,2013-08-23 23:59:00,
2013-08-23 19:00:00,84.4,71.3,29.92,ESE,109,2.0,2.0,65,0.00,,,0.00,84,Wunderground v.1.15,2013-08-24 00:00:00,
2013-08-23 19:01:00,84.4,71.3,29.92,ESE,109,2.0,3.0,65,0.00,,,0.00,84,Wunderground v.1.15,2013-08-24 00:01:00,
2013-08-23 19:03:00,84.2,71.2,29.92,East,91,3.0,3.0,65,0.00,,,0.00,88,Wunderground v.1.15,2013-08-24 00:03:00,
2013-08-23 19:05:00,84.1,71.5,29.92,ESE,112,0.0,3.0,66,0.00,,,0.00,77,Wunderground v.1.15,2013-08-24 00:05:00,
2013-08-23 19:06:00,84.0,71.4,29.92,ESE,112,0.0,3.0,66,0.00,,,0.00,74,Wunderground v.1.15,2013-08-24 00:06:00,
2013-08-23 19:08:00,83.8,71.7,29.92,ESE,106,3.0,3.0,67,0.00,,,0.00,51,Wunderground v.1.15,2013-08-24 00:08:00,
2013-08-23 19:09:00,83.8,71.7,29.92,ESE,106,2.0,3.0,67,0.00,,,0.00,51,Wunderground v.1.15,2013-08-24 00:09:00,
2013-08-23 19:10:00,83.7,71.6,29.92,East,95,2.0,2.0,67,0.00,,,0.00,62,Wunderground v.1.15,2013-08-24 00:10:00,
2013-08-23 19:11:00,83.6,71.5,29.92,East,101,2.0,3.0,67,0.00,,,0.00,60,Wunderground v.1.15,2013-08-24 00:11:00,
2013-08-23 19:14:00,83.5,71.8,29.92,East,101,1.0,3.0,68,0.00,,,0.00,44,Wunderground v.1.15,2013-08-24 00:14:00,
2013-08-23 19:15:00,83.3,71.6,29.92,East,101,1.0,5.0,68,0.00,,,0.00,39,Wunderground v.1.15,2013-08-24 00:15:00,
2013-08-23 19:16:00,83.2,72.0,29.92,ESE,109,0.0,6.0,69,0.00,,,0.00,37,Wunderground v.1.15,2013-08-24 00:16:00,
2013-08-23 19:19:00,83.0,71.8,29.92,ESE,109,0.0,6.0,69,0.00,,,0.00,35,Wunderground v.1.15,2013-08-24 00:19:00,
2013-08-23 19:20:00,82.8,72.0,29.92,ESE,109,0.0,1.0,70,0.00,,,0.00,37,Wunderground v.1.15,2013-08-24 00:20:00,
2013-08-23 19:22:00,82.8,72.0,29.92,East,96,5.0,5.0,70,0.00,,,0.00,35,Wunderground v.1.15,2013-08-24 00:22:00,
2013-08-23 19:24:00,82.6,72.2,29.92,East,94,1.0,5.0,71,0.00,,,0.00,30,Wunderground v.1.15,2013-08-24 00:24:00,
2013-08-23 19:25:00,82.5,72.6,29.92,ENE,71,2.0,5.0,72,0.00,,,0.00,28,Wunderground v.1.15,2013-08-24 00:25:00,
2013-08-23 19:27:00,82.5,72.6,29.92,East,94,2.0,7.0,72,0.00,,,0.00,26,Wunderground v.1.15,2013-08-24 00:27:00,
2013-08-23 19:29:00,82.4,72.5,29.92,ESE,115,1.0,7.0,72,0.00,,,0.00,21,Wunderground v.1.15,2013-08-24 00:29:00,
2013-08-23 19:30:00,82.3,72.8,29.92,ESE,105,1.0,5.0,73,0.00,,,0.00,19,Wunderground v.1.15,2013-08-24 00:30:00,
2013-08-23 19:32:00,82.2,72.7,29.92,East,96,1.0,5.0,73,0.00,,,0.00,18,Wunderground v.1.15,2013-08-24 00:32:00,
2013-08-23 19:35:00,82.1,73.0,29.92,East,96,0.0,5.0,74,0.00,,,0.00,16,Wunderground v.1.15,2013-08-24 00:35:00,
2013-08-23 19:36:00,82.0,72.9,29.92,East,96,0.0,5.0,74,0.00,,,0.00,16,Wunderground v.1.15,2013-08-24 00:36:00,
2013-08-23 19:37:00,81.9,72.8,29.92,ESE,117,0.0,5.0,74,0.00,,,0.00,14,Wunderground v.1.15,2013-08-24 00:37:00,
2013-08-23 19:40:00,81.6,72.9,29.92,ESE,102,1.0,2.0,75,0.00,,,0.00,12,Wunderground v.1.15,2013-08-24 00:40:00,
2013-08-23 19:41:00,81.6,72.9,29.92,ESE,123,2.0,2.0,75,0.00,,,0.00,12,Wunderground v.1.15,2013-08-24 00:41:00,
2013-08-23 19:42:00,81.6,72.9,29.92,ESE,109,0.0,3.0,75,0.00,,,0.00,11,Wunderground v.1.15,2013-08-24 00:42:00,
2013-08-23 19:45:00,81.5,72.8,29.92,East,88,3.0,6.0,75,0.00,,,0.00,9,Wunderground v.1.15,2013-08-24 00:45:00,
2013-08-23 19:46:00,81.5,72.8,29.92,East,99,2.0,6.0,75,0.00,,,0.00,9,Wunderground v.1.15,2013-08-24 00:46:00,
2013-08-23 19:47:00,81.4,72.7,29.92,ESE,110,2.0,7.0,75,0.00,,,0.00,9,Wunderground v.1.15,2013-08-24 00:47:00,
2013-08-23 19:50:00,81.3,73.0,29.92,East,86,1.0,3.0,76,0.00,,,0.00,7,Wunderground v.1.15,2013-08-24 00:50:00,
2013-08-23 19:51:00,81.3,73.0,29.92,East,98,0.0,3.0,76,0.00,,,0.00,7,Wunderground v.1.15,2013-08-24 00:51:00,
2013-08-23 19:52:00,81.2,72.9,29.92,ESE,115,1.0,4.0,76,0.00,,,0.00,5,Wunderground v.1.15,2013-08-24 00:52:00,
2013-08-23 19:53:00,81.2,72.9,29.92,ESE,103,1.0,4.0,76,0.00,,,0.00,5,Wunderground v.1.15,2013-08-24 00:53:00,
2013-08-23 19:55:00,81.1,72.8,29.92,ESE,119,1.0,6.0,76,0.00,,,0.00,5,Wunderground v.1.15,2013-08-24 00:55:00,
2013-08-23 19:56:00,81.1,72.8,29.92,ESE,119,0.0,6.0,76,0.00,,,0.00,5,Wunderground v.1.15,2013-08-24 00:56:00,
2013-08-23 19:58:00,81.0,72.7,29.92,East,86,1.0,6.0,76,0.00,,,0.00,0,Wunderground v.1.15,2013-08-24 00:58:00,
2013-08-23 20:00:00,80.8,72.9,29.92,East,98,1.0,2.0,77,0.00,,,0.00,0,Wunderground v.1.15,2013-08-24 01:00:00,
2013-08-23 20:01:00,80.8,72.9,29.92,East,98,0.0,2.0,77,0.00,,,0.00,0,Wunderground v.1.15,2013-08-24 01:01:00,
2013-08-23 20:02:00,80.7,72.8,29.92,ESE,115,4.0,5.0,77,0.00,,,0.00,0,Wunderground v.1.15,2013-08-24 01:02:00,
2013-08-23 20:03:00,80.6,72.7,29.92,East,101,1.0,5.0,77,0.00,,,0.00,0,Wunderground v.1.15,2013-08-24 01:03:00,
2013-08-23 20:04:00,80.6,72.7,29.92,East,101,1.0,5.0,77,0.00,,,0.00,0,Wunderground v.1.15,2013-08-24 01:04:00,
2013-08-23 20:06:00,80.5,72.6,29.92,East,93,3.0,7.0,77,0.00,,,0.00,0,Wunderground v.1.15,2013-08-24 01:06:00,
2013-08-23 20:07:00,80.4,72.5,29.92,ESE,104,1.0,7.0,77,0.00,,,0.00,0,Wunderground v.1.15,2013-08-24 01:07:00,
2013-08-23 20:09:00,80.3,72.4,29.92,East,98,1.0,7.0,77,0.00,,,0.00,0,Wunderground v.1.15,2013-08-24 01:09:00,
2013-08-23 20:11:00,80.2,72.7,29.92,East,95,0.0,5.0,78,0.00,,,0.00,0,Wunderground v.1.15,2013-08-24 01:11:00,
2013-08-23 20:12:00,80.2,72.7,29.92,SE,126,2.0,5.0,78,0.00,,,0.00,0,Wunderground v.1.15,2013-08-24 01:12:00,
2013-08-23 20:14:00,80.1,72.6,29.92,East,84,3.0,8.0,78,0.00,,,0.00,0,Wunderground v.1.15,2013-08-24 01:14:00,
2013-08-23 20:17:00,80.1,72.6,29.92,East,101,2.0,8.0,78,0.00,,,0.00,0,Wunderground v.1.15,2013-08-24 01:17:00,
2013-08-23 20:18:00,80.0,72.5,29.92,East,101,2.0,8.0,78,0.00,,,0.00,0,Wunderground v.1.15,2013-08-24 01:18:00,
2013-08-23 20:19:00,80.0,72.5,29.92,ESE,116,1.0,9.0,78,0.00,,,0.00,0,Wunderground v.1.15,2013-08-24 01:19:00,
2013-08-23 20:20:00,80.0,72.5,29.92,ESE,120,2.0,3.0,78,0.00,,,0.00,0,Wunderground v.1.15,2013-08-24 01:20:00,
2013-08-23 20:22:00,80.0,72.5,29.92,ESE,123,0.0,3.0,78,0.00,,,0.00,0,Wunderground v.1.15,2013-08-24 01:22:00,
2013-08-23 20:23:00,79.8,72.3,29.92,ESE,115,1.0,3.0,78,0.00,,,0.00,0,Wunderground v.1.15,2013-08-24 01:23:00,
2013-08-23 20:24:00,79.8,72.3,29.92,ESE,112,4.0,4.0,78,0.00,,,0.00,0,Wunderground v.1.15,2013-08-24 01:24:00,
2013-08-23 20:25:00,79.8,72.3,29.92,ESE,115,4.0,4.0,78,0.00,,,0.00,0,Wunderground v.1.15,2013-08-24 01:25:00,
2013-08-23 20:27:00,79.7,72.2,29.92,ESE,113,3.0,5.0,78,0.00,,,0.00,0,Wunderground v.1.15,2013-08-24 01:27:00,
2013-08-23 20:29:00,79.7,72.2,29.92,ESE,112,3.0,6.0,78,0.00,,,0.00,0,Wunderground v.1.15,2013-08-24 01:29:00,
2013-08-23 20:30:00,79.6,72.1,29.92,East,92,7.0,9.0,78,0.00,,,0.00,0,Wunderground v.1.15,2013-08-24 01:30:00,
2013-08-23 20:33:00,79.5,72.4,29.92,ESE,120,1.0,6.0,79,0.00,,,0.00,0,Wunderground v.1.15,2013-08-24 01:33:00,
2013-08-23 20:34:00,79.5,72.4,29.92,ESE,111,2.0,8.0,79,0.00,,,0.00,0,Wunderground v.1.15,2013-08-24 01:34:00,
2013-08-23 20:35:00,79.5,72.4,29.92,East,96,1.0,8.0,79,0.00,,,0.00,0,Wunderground v.1.15,2013-08-24 01:35:00,
2013-08-23 20:36:00,79.5,72.4,29.92,ESE,114,2.0,8.0,79,0.00,,,0.00,0,Wunderground v.1.15,2013-08-24 01:36:00,
2013-08-23 20:38:00,79.5,72.0,29.92,East,89,0.0,8.0,78,0.00,,,0.00,0,Wunderground v.1.15,2013-08-24 01:38:00,
2013-08-23 20:39:00,79.5,72.0,29.92,ESE,108,2.0,8.0,78,0.00,,,0.00,0,Wunderground v.1.15,2013-08-24 01:39:00,
2013-08-23 20:40:00,79.5,72.0,29.92,East,92,9.0,10.0,78,0.00,,,0.00,0,Wunderground v.1.15,2013-08-24 01:40:00,
2013-08-23 20:41:00,79.4,71.9,29.92,East,88,6.0,10.0,78,0.00,,,0.00,0,Wunderground v.1.15,2013-08-24 01:41:00,
2013-08-23 20:43:00,79.5,72.0,29.93,East,96,1.0,10.0,78,0.00,,,0.00,0,Wunderground v.1.15,2013-08-24 01:43:00,
2013-08-23 20:44:00,79.5,72.0,29.93,East,92,1.0,10.0,78,0.00,,,0.00,0,Wunderground v.1.15,2013-08-24 01:44:00,
2013-08-23 20:46:00,79.5,72.0,29.93,ESE,116,4.0,10.0,78,0.00,,,0.00,0,Wunderground v.1.15,2013-08-24 01:46:00,
2013-08-23 20:47:00,79.5,72.0,29.93,East,92,7.0,10.0,78,0.00,,,0.00,0,Wunderground v.1.15,2013-08-24 01:47:00,
2013-08-23 20:48:00,79.5,72.0,29.93,East,97,5.0,10.0,78,0.00,,,0.00,0,Wunderground v.1.15,2013-08-24 01:48:00,
2013-08-23 20:49:00,79.5,72.0,29.93,ESE,111,0.0,10.0,78,0.00,,,0.00,0,Wunderground v.1.15,2013-08-24 01:49:00,
2013-08-23 20:51:00,79.5,72.0,29.93,ESE,107,1.0,3.0,78,0.00,,,0.00,0,Wunderground v.1.15,2013-08-24 01:51:00,
2013-08-23 20:52:00,79.4,71.9,29.93,East,92,1.0,3.0,78,0.00,,,0.00,0,Wunderground v.1.15,2013-08-24 01:52:00,
2013-08-23 20:53:00,79.4,71.9,29.93,East,98,2.0,5.0,78,0.00,,,0.00,0,Wunderground v.1.15,2013-08-24 01:53:00,
2013-08-23 20:55:00,79.4,71.9,29.93,ESE,105,3.0,5.0,78,0.00,,,0.00,0,Wunderground v.1.15,2013-08-24 01:55:00,
2013-08-23 20:56:00,79.3,71.8,29.93,ESE,116,2.0,7.0,78,0.00,,,0.00,0,Wunderground v.1.15,2013-08-24 01:56:00,
2013-08-23 20:58:00,79.3,71.8,29.93,ESE,107,4.0,7.0,78,0.00,,,0.00,0,Wunderground v.1.15,2013-08-24 01:58:00,
2013-08-23 21:00:00,79.3,71.8,29.93,ESE,120,5.0,8.0,78,0.00,,,0.00,0,Wunderground v.1.15,2013-08-24 02:00:00,
2013-08-23 21:01:00,79.3,71.8,29.93,SE,126,9.0,9.0,78,0.00,,,0.00,0,Wunderground v.1.15,2013-08-24 02:01:00,
2013-08-23 21:03:00,79.2,71.7,29.93,ESE,114,1.0,9.0,78,0.00,,,0.00,0,Wunderground v.1.15,2013-08-24 02:03:00,
2013-08-23 21:04:00,79.2,71.7,29.93,ESE,109,2.0,9.0,78,0.00,,,0.00,0,Wunderground v.1.15,2013-08-24 02:04:00,
2013-08-23 21:06:00,79.2,71.7,29.93,ESE,104,1.0,9.0,78,0.00,,,0.00,0,Wunderground v.1.15,2013-08-24 02:06:00,
2013-08-23 21:09:00,79.2,71.7,29.93,ESE,105,1.0,9.0,78,0.00,,,0.00,0,Wunderground v.1.15,2013-08-24 02:09:00,
2013-08-23 21:10:00,79.2,71.7,29.93,ESE,111,1.0,6.0,78,0.00,,,0.00,0,Wunderground v.1.15,2013-08-24 02:10:00,
2013-08-23 21:11:00,79.2,71.7,29.93,East,88,7.0,7.0,78,0.00,,,0.00,0,Wunderground v.1.15,2013-08-24 02:11:00,
2013-08-23 21:14:00,79.1,71.6,29.93,East,101,3.0,7.0,78,0.00,,,0.00,0,Wunderground v.1.15,2013-08-24 02:14:00,
2013-08-23 21:16:00,79.1,71.6,29.93,ESE,105,2.0,7.0,78,0.00,,,0.00,0,Wunderground v.1.15,2013-08-24 02:16:00,
2013-08-23 21:18:00,79.0,71.6,29.94,ESE,109,5.0,7.0,78,0.00,,,0.00,0,Wunderground v.1.15,2013-08-24 02:18:00,
2013-08-23 21:19:00,78.9,71.8,29.94,ESE,112,5.0,7.0,79,0.00,,,0.00,0,Wunderground v.1.15,2013-08-24 02:19:00,
2013-08-23 21:20:00,78.9,71.8,29.94,ESE,112,2.0,6.0,79,0.00,,,0.00,0,Wunderground v.1.15,2013-08-24 02:20:00,
2013-08-23 21:21:00,78.9,71.8,29.94,ESE,112,0.0,6.0,79,0.00,,,0.00,0,Wunderground v.1.15,2013-08-24 02:21:00,
2013-08-23 21:23:00,78.8,71.7,29.94,East,87,5.0,8.0,79,0.00,,,0.00,0,Wunderground v.1.15,2013-08-24 02:23:00,
2013-08-23 21:24:00,78.8,71.7,29.94,ESE,106,1.0,9.0,79,0.00,,,0.00,0,Wunderground v.1.15,2013-08-24 02:24:00,
2013-08-23 21:26:00,78.8,71.7,29.94,East,96,2.0,9.0,79,0.00,,,0.00,0,Wunderground v.1.15,2013-08-24 02:26:00,
2013-08-23 21:28:00,78.7,71.6,29.94,East,99,7.0,9.0,79,0.00,,,0.00,0,Wunderground v.1.15,2013-08-24 02:28:00,
2013-08-23 21:30:00,78.7,71.6,29.94,ESE,105,1.0,7.0,79,0.00,,,0.00,0,Wunderground v.1.15,2013-08-24 02:30:00,
2013-08-23 21:31:00,78.7,71.6,29.94,East,90,0.0,7.0,79,0.00,,,0.00,0,Wunderground v.1.15,2013-08-24 02:31:00,
2013-08-23 21:32:00,78.7,71.6,29.94,ESE,112,4.0,7.0,79,0.00,,,0.00,0,Wunderground v.1.15,2013-08-24 02:32:00,
2013-08-23 21:33:00,78.6,71.5,29.94,ESE,118,0.0,7.0,79,0.00,,,0.00,0,Wunderground v.1.15,2013-08-24 02:33:00,
2013-08-23 21:34:00,78.6,71.5,29.94,East,90,8.0,8.0,79,0.00,,,0.00,0,Wunderground v.1.15,2013-08-24 02:34:00,
2013-08-23 21:35:00,78.6,71.5,29.94,East,101,7.0,8.0,79,0.00,,,0.00,0,Wunderground v.1.15,2013-08-24 02:35:00,
2013-08-23 21:37:00,78.6,71.5,29.94,East,94,2.0,8.0,79,0.00,,,0.00,0,Wunderground v.1.15,2013-08-24 02:37:00,
2013-08-23 21:38:00,78.6,71.5,29.94,ESE,113,1.0,8.0,79,0.00,,,0.00,0,Wunderground v.1.15,2013-08-24 02:38:00,
2013-08-23 21:39:00,78.5,71.4,29.94,ESE,121,0.0,8.0,79,0.00,,,0.00,0,Wunderground v.1.15,2013-08-24 02:39:00,
2013-08-23 21:41:00,78.5,71.8,29.94,ESE,117,3.0,6.0,80,0.00,,,0.00,0,Wunderground v.1.15,2013-08-24 02:41:00,
2013-08-23 21:42:00,78.4,71.7,29.94,ESE,109,3.0,6.0,80,0.00,,,0.00,0,Wunderground v.1.15,2013-08-24 02:42:00,
2013-08-23 21:44:00,78.4,71.7,29.94,ENE,78,2.0,6.0,80,0.00,,,0.00,0,Wunderground v.1.15,2013-08-24 02:44:00,
2013-08-23 21:46:00,78.4,71.7,29.94,East,95,6.0,7.0,80,0.00,,,0.00,0,Wunderground v.1.15,2013-08-24 02:46:00,
2013-08-23 21:47:00,78.4,71.7,29.94,ESE,103,7.0,7.0,80,0.00,,,0.00,0,Wunderground v.1.15,2013-08-24 02:47:00,
2013-08-23 21:49:00,78.4,71.7,29.94,ESE,110,9.0,10.0,80,0.00,,,0.00,0,Wunderground v.1.15,2013-08-24 02:49:00,
2013-08-23 21:50:00,78.4,71.7,29.94,ESE,107,7.0,7.0,80,0.00,,,0.00,0,Wunderground v.1.15,2013-08-24 02:50:00,
2013-08-23 21:51:00,78.4,71.7,29.94,East,98,6.0,11.0,80,0.00,,,0.00,0,Wunderground v.1.15,2013-08-24 02:51:00,
2013-08-23 21:52:00,78.4,71.7,29.94,SE,139,5.0,11.0,80,0.00,,,0.00,0,Wunderground v.1.15,2013-08-24 02:52:00,
2013-08-23 21:54:00,78.4,71.3,29.94,ESE,113,4.0,11.0,79,0.00,,,0.00,0,Wunderground v.1.15,2013-08-24 02:54:00,
2013-08-23 21:55:00,78.4,71.3,29.94,ESE,113,4.0,11.0,79,0.00,,,0.00,0,Wunderground v.1.15,2013-08-24 02:55:00,
2013-08-23 21:56:00,78.4,71.3,29.94,ESE,117,3.0,11.0,79,0.00,,,0.00,0,Wunderground v.1.15,2013-08-24 02:56:00,
2013-08-23 21:57:00,78.4,71.3,29.94,ESE,111,4.0,11.0,79,0.00,,,0.00,0,Wunderground v.1.15,2013-08-24 02:57:00,
2013-08-23 21:59:00,78.4,71.3,29.94,ESE,113,1.0,11.0,79,0.00,,,0.00,0,Wunderground v.1.15,2013-08-24 02:59:00,
2013-08-23 22:00:00,78.3,71.2,29.94,ESE,103,7.0,7.0,79,0.00,,,0.00,0,Wunderground v.1.15,2013-08-24 03:00:00,
2013-08-23 22:01:00,78.3,71.2,29.94,ESE,109,4.0,7.0,79,0.00,,,0.00,0,Wunderground v.1.15,2013-08-24 03:01:00,
2013-08-23 22:02:00,78.3,71.2,29.94,ESE,107,1.0,9.0,79,0.00,,,0.00,0,Wunderground v.1.15,2013-08-24 03:02:00,
2013-08-23 22:03:00,78.3,71.2,29.94,ESE,107,2.0,9.0,79,0.00,,,0.00,0,Wunderground v.1.15,2013-08-24 03:03:00,
2013-08-23 22:05:00,78.2,71.2,29.94,ESE,104,5.0,9.0,79,0.00,,,0.00,0,Wunderground v.1.15,2013-08-24 03:05:00,
2013-08-23 22:06:00,78.2,71.2,29.94,ESE,119,7.0,10.0,79,0.00,,,0.00,0,Wunderground v.1.15,2013-08-24 03:06:00,
2013-08-23 22:08:00,78.2,71.2,29.94,East,94,5.0,10.0,79,0.00,,,0.00,0,Wunderground v.1.15,2013-08-24 03:08:00,
2013-08-23 22:10:00,78.2,71.2,29.94,ESE,107,7.0,7.0,79,0.00,,,0.00,0,Wunderground v.1.15,2013-08-24 03:10:00,
2013-08-23 22:11:00,78.1,71.1,29.94,ESE,105,7.0,7.0,79,0.00,,,0.00,0,Wunderground v.1.15,2013-08-24 03:11:00,
2013-08-23 22:13:00,78.1,71.1,29.94,ESE,104,3.0,7.0,79,0.00,,,0.00,0,Wunderground v.1.15,2013-08-24 03:13:00,
2013-08-23 22:15:00,78.0,71.0,29.94,ESE,114,1.0,8.0,79,0.00,,,0.00,0,Wunderground v.1.15,2013-08-24 03:15:00,
2013-08-23 22:16:00,78.0,71.0,29.94,East,96,0.0,8.0,79,0.00,,,0.00,0,Wunderground v.1.15,2013-08-24 03:16:00,
2013-08-23 22:17:00,78.0,71.0,29.94,East,101,1.0,8.0,79,0.00,,,0.00,0,Wunderground v.1.15,2013-08-24 03:17:00,
2013-08-23 22:18:00,78.0,71.0,29.94,ESE,118,5.0,8.0,79,0.00,,,0.00,0,Wunderground v.1.15,2013-08-24 03:18:00,
2013-08-23 22:20:00,77.9,70.9,29.94,ENE,69,5.0,5.0,79,0.00,,,0.00,0,Wunderground v.1.15,2013-08-24 03:20:00,
2013-08-23 22:21:00,77.9,70.9,29.94,SE,130,4.0,8.0,79,0.00,,,0.00,0,Wunderground v.1.15,2013-08-24 03:21:00,
2013-08-23 22:22:00,78.0,71.0,29.94,ESE,111,4.0,8.0,79,0.00,,,0.00,0,Wunderground v.1.15,2013-08-24 03:22:00,
2013-08-23 22:23:00,77.9,70.9,29.94,ESE,121,1.0,8.0,79,0.00,,,0.00,0,Wunderground v.1.15,2013-08-24 03:23:00,
2013-08-23 22:24:00,77.9,70.9,29.94,ESE,111,7.0,8.0,79,0.00,,,0.00,0,Wunderground v.1.15,2013-08-24 03:24:00,
2013-08-23 22:25:00,77.9,70.9,29.94,ESE,107,4.0,10.0,79,0.00,,,0.00,0,Wunderground v.1.15,2013-08-24 03:25:00,
2013-08-23 22:26:00,77.9,70.9,29.94,ESE,109,3.0,10.0,79,0.00,,,0.00,0,Wunderground v.1.15,2013-08-24 03:26:00,
2013-08-23 22:27:00,77.9,70.9,29.94,ESE,109,1.0,10.0,79,0.00,,,0.00,0,Wunderground v.1.15,2013-08-24 03:27:00,
2013-08-23 22:28:00,77.9,70.9,29.94,SE,129,1.0,10.0,79,0.00,,,0.00,0,Wunderground v.1.15,2013-08-24 03:28:00,
2013-08-23 22:29:00,77.9,70.9,29.94,ESE,106,2.0,10.0,79,0.00,,,0.00,0,Wunderground v.1.15,2013-08-24 03:29:00,
2013-08-23 22:31:00,77.9,70.9,29.94,ESE,110,1.0,6.0,79,0.00,,,0.00,0,Wunderground v.1.15,2013-08-24 03:31:00,
2013-08-23 22:32:00,77.9,70.9,29.94,ESE,117,3.0,7.0,79,0.00,,,0.00,0,Wunderground v.1.15,2013-08-24 03:32:00,
2013-08-23 22:34:00,77.9,70.9,29.94,East,98,6.0,10.0,79,0.00,,,0.00,0,Wunderground v.1.15,2013-08-24 03:34:00,
2013-08-23 22:35:00,77.8,70.8,29.95,ESE,118,1.0,10.0,79,0.00,,,0.00,0,Wunderground v.1.15,2013-08-24 03:35:00,
2013-08-23 22:36:00,77.8,70.8,29.94,ESE,113,0.0,10.0,79,0.00,,,0.00,0,Wunderground v.1.15,2013-08-24 03:36:00,
2013-08-23 22:37:00,77.8,70.8,29.95,SE,138,2.0,10.0,79,0.00,,,0.00,0,Wunderground v.1.15,2013-08-24 03:37:00,
2013-08-23 22:39:00,77.8,70.8,29.95,ESE,122,3.0,10.0,79,0.00,,,0.00,0,Wunderground v.1.15,2013-08-24 03:39:00,
2013-08-23 22:41:00,77.8,70.8,29.95,ESE,123,5.0,7.0,79,0.00,,,0.00,0,Wunderground v.1.15,2013-08-24 03:41:00,
2013-08-23 22:42:00,77.8,70.8,29.95,ESE,115,4.0,7.0,79,0.00,,,0.00,0,Wunderground v.1.15,2013-08-24 03:42:00,
2013-08-23 22:44:00,77.8,70.8,29.95,ESE,121,4.0,7.0,79,0.00,,,0.00,0,Wunderground v.1.15,2013-08-24 03:44:00,
2013-08-23 22:46:00,77.7,70.7,29.95,ESE,116,7.0,9.0,79,0.00,,,0.00,0,Wunderground v.1.15,2013-08-24 03:46:00,
2013-08-23 22:47:00,77.7,70.7,29.95,ESE,122,2.0,9.0,79,0.00,,,0.00,0,Wunderground v.1.15,2013-08-24 03:47:00,
2013-08-23 22:49:00,77.7,70.7,29.95,ESE,103,4.0,9.0,79,0.00,,,0.00,0,Wunderground v.1.15,2013-08-24 03:49:00,
2013-08-23 22:51:00,77.7,70.7,29.95,ESE,112,3.0,6.0,79,0.00,,,0.00,0,Wunderground v.1.15,2013-08-24 03:51:00,
2013-08-23 22:53:00,77.7,70.7,29.95,East,98,0.0,8.0,79,0.00,,,0.00,0,Wunderground v.1.15,2013-08-24 03:53:00,
2013-08-23 22:54:00,77.6,70.6,29.95,ESE,104,2.0,8.0,79,0.00,,,0.00,0,Wunderground v.1.15,2013-08-24 03:54:00,
2013-08-23 22:56:00,77.6,70.6,29.95,ESE,108,0.0,8.0,79,0.00,,,0.00,0,Wunderground v.1.15,2013-08-24 03:56:00,
2013-08-23 22:57:00,77.6,70.6,29.95,ESE,116,1.0,8.0,79,0.00,,,0.00,0,Wunderground v.1.15,2013-08-24 03:57:00,
2013-08-23 22:59:00,77.6,70.6,29.95,ESE,119,4.0,8.0,79,0.00,,,0.00,0,Wunderground v.1.15,2013-08-24 03:59:00,
2013-08-23 23:01:00,77.5,70.5,29.95,East,98,1.0,6.0,79,0.00,,,0.00,0,Wunderground v.1.15,2013-08-24 04:01:00,
2013-08-23 23:02:00,77.5,70.5,29.95,ESE,121,3.0,7.0,79,0.00,,,0.00,0,Wunderground v.1.15,2013-08-24 04:02:00,
2013-08-23 23:06:00,77.5,70.5,29.95,ESE,106,0.0,7.0,79,0.00,,,0.00,0,Wunderground v.1.15,2013-08-24 04:06:00,
2013-08-23 23:07:00,77.4,70.4,29.95,ESE,108,5.0,7.0,79,0.00,,,0.00,0,Wunderground v.1.15,2013-08-24 04:07:00,
2013-08-23 23:11:00,77.3,70.3,29.95,ESE,108,3.0,8.0,79,0.00,,,0.00,0,Wunderground v.1.15,2013-08-24 04:11:00,
2013-08-23 23:12:00,77.3,70.3,29.95,ESE,119,5.0,8.0,79,0.00,,,0.00,0,Wunderground v.1.15,2013-08-24 04:12:00,
2013-08-23 23:16:00,77.2,70.2,29.95,SE,129,6.0,8.0,79,0.00,,,0.00,0,Wunderground v.1.15,2013-08-24 04:16:00,
2013-08-23 23:17:00,77.2,70.2,29.95,East,98,3.0,10.0,79,0.00,,,0.00,0,Wunderground v.1.15,2013-08-24 04:17:00,
2013-08-23 23:21:00,77.2,70.2,29.95,ESE,117,4.0,9.0,79,0.00,,,0.00,0,Wunderground v.1.15,2013-08-24 04:21:00,
2013-08-23 23:22:00,77.2,70.2,29.95,ESE,117,3.0,9.0,79,0.00,,,0.00,0,Wunderground v.1.15,2013-08-24 04:22:00,
2013-08-23 23:26:00,77.1,70.1,29.95,ESE,107,1.0,10.0,79,0.00,,,0.00,0,Wunderground v.1.15,2013-08-24 04:26:00,
2013-08-23 23:27:00,77.1,70.1,29.95,ESE,119,1.0,10.0,79,0.00,,,0.00,0,Wunderground v.1.15,2013-08-24 04:27:00,
2013-08-23 23:28:00,77.0,70.4,29.95,ESE,116,7.0,10.0,80,0.00,,,0.00,0,Wunderground v.1.15,2013-08-24 04:28:00,
2013-08-23 23:31:00,77.0,70.4,29.95,SE,130,5.0,8.0,80,0.00,,,0.00,0,Wunderground v.1.15,2013-08-24 04:31:00,
2013-08-23 23:33:00,77.0,70.4,29.95,ESE,115,4.0,8.0,80,0.00,,,0.00,0,Wunderground v.1.15,2013-08-24 04:33:00,
2013-08-23 23:37:00,77.0,70.4,29.95,ESE,119,7.0,10.0,80,0.00,,,0.00,0,Wunderground v.1.15,2013-08-24 04:37:00,
2013-08-23 23:38:00,77.0,70.4,29.95,ESE,120,8.0,10.0,80,0.00,,,0.00,0,Wunderground v.1.15,2013-08-24 04:38:00,
2013-08-23 23:39:00,76.9,70.3,29.95,ESE,119,3.0,10.0,80,0.00,,,0.00,0,Wunderground v.1.15,2013-08-24 04:39:00,
2013-08-23 23:42:00,76.9,70.3,29.95,ESE,120,7.0,8.0,80,0.00,,,0.00,0,Wunderground v.1.15,2013-08-24 04:42:00,
2013-08-23 23:43:00,76.8,70.2,29.95,ESE,122,3.0,8.0,80,0.00,,,0.00,0,Wunderground v.1.15,2013-08-24 04:43:00,
2013-08-23 23:44:00,76.8,70.2,29.95,ESE,115,4.0,8.0,80,0.00,,,0.00,0,Wunderground v.1.15,2013-08-24 04:44:00,
2013-08-23 23:47:00,76.7,70.1,29.95,ESE,111,5.0,11.0,80,0.00,,,0.00,0,Wunderground v.1.15,2013-08-24 04:47:00,
2013-08-23 23:49:00,76.7,70.1,29.95,ESE,103,9.0,11.0,80,0.00,,,0.00,0,Wunderground v.1.15,2013-08-24 04:49:00,
2013-08-23 23:50:00,76.7,70.1,29.95,ESE,109,5.0,5.0,80,0.00,,,0.00,0,Wunderground v.1.15,2013-08-24 04:50:00,
2013-08-23 23:53:00,76.6,70.0,29.95,ESE,119,1.0,8.0,80,0.00,,,0.00,0,Wunderground v.1.15,2013-08-24 04:53:00,
2013-08-23 23:54:00,76.5,69.9,29.95,ESE,119,2.0,8.0,80,0.00,,,0.00,0,Wunderground v.1.15,2013-08-24 04:54:00,
2013-08-23 23:55:00,76.5,70.2,29.95,ESE,113,0.0,8.0,81,0.00,,,0.00,0,Wunderground v.1.15,2013-08-24 04:55:00,
2013-08-23 23:58:00,76.3,70.0,29.95,ESE,115,4.0,8.0,81,0.00,,,0.00,0,Wunderground v.1.15,2013-08-24 04:58:00,
2013-08-23 23:59:00,76.2,69.9,29.95,ESE,111,3.0,8.0,81,0.00,,,0.00,0,Wunderground v.1.15,2013-08-24 04:59:00,